Time,TemperatureF,DewpointF,PressureIn,WindDirection,WindDirectionDegrees,WindSpeedMPH,WindSpeedGustMPH,Humidity,HourlyPrecipIn,Conditions,Clouds,dailyrainin,SoftwareType,DateUTC
2013-02-15 00:00:00,35.2,21.9,30.01,ENE,73,0.0,0.0,58,0.00,CLR,,0.00,WeatherDisplay:10.37,2013-02-15 05:00:00,
2013-02-15 00:05:00,33.6,19.1,30.01,ENE,73,0.0,0.0,55,0.00,CLR,,0.00,WeatherDisplay:10.37,2013-02-15 05:05:00,
2013-02-15 00:10:00,31.5,19.2,30.01,ENE,73,0.0,0.0,60,0.00,CLR,,0.00,WeatherDisplay:10.37,2013-02-15 05:10:00,
2013-02-15 00:15:00,30.4,18.2,30.02,ENE,73,0.0,0.0,60,0.00,CLR,,0.00,WeatherDisplay:10.37,2013-02-15 05:15:00,
2013-02-15 00:20:00,33.5,20.3,30.01,ENE,73,0.0,0.0,58,0.00,CLR,,0.00,WeatherDisplay:10.37,2013-02-15 05:20:00,
2013-02-15 00:21:00,33.5,20.3,30.01,ENE,73,0.0,0.0,58,0.00,CLR,,0.00,WeatherDisplay:10.37,2013-02-15 05:21:00,
2013-02-15 00:25:00,33.5,20.3,30.01,ENE,73,0.0,0.0,58,0.00,CLR,,0.00,WeatherDisplay:10.37,2013-02-15 05:25:00,
2013-02-15 00:26:00,33.3,20.1,30.01,ENE,73,0.0,0.0,58,0.00,CLR,,0.00,WeatherDisplay:10.37,2013-02-15 05:26:00,
2013-02-15 00:30:00,30.6,18.3,30.01,ENE,73,0.0,0.0,60,0.00,CLR,,0.00,WeatherDisplay:10.37,2013-02-15 05:30:00,
2013-02-15 00:31:00,31.6,19.7,30.01,ENE,73,0.0,0.0,61,0.00,CLR,,0.00,WeatherDisplay:10.37,2013-02-15 05:31:00,
2013-02-15 00:35:00,32.6,23.2,30.01,ENE,73,0.0,0.0,68,0.00,CLR,,0.00,WeatherDisplay:10.37,2013-02-15 05:35:00,
2013-02-15 00:36:00,32.7,22.6,30.01,ENE,73,0.0,0.0,66,0.00,CLR,,0.00,WeatherDisplay:10.37,2013-02-15 05:36:00,
2013-02-15 00:40:00,33.1,20.3,30.01,ENE,73,0.0,0.0,59,0.00,CLR,,0.00,WeatherDisplay:10.37,2013-02-15 05:40:00,
2013-02-15 00:41:00,33.9,20.7,30.01,ENE,73,0.0,0.0,58,0.00,CLR,,0.00,WeatherDisplay:10.37,2013-02-15 05:41:00,
2013-02-15 00:46:00,34.2,20.1,30.01,ENE,73,0.0,0.0,56,0.00,CLR,,0.00,WeatherDisplay:10.37,2013-02-15 05:46:00,
2013-02-15 00:47:00,34.2,20.1,30.01,ENE,73,0.0,0.0,56,0.00,CLR,,0.00,WeatherDisplay:10.37,2013-02-15 05:47:00,
2013-02-15 00:51:00,33.0,19.4,30.01,ENE,73,0.0,0.0,57,0.00,CLR,,0.00,WeatherDisplay:10.37,2013-02-15 05:51:00,
2013-02-15 00:52:00,33.0,19.4,30.01,ENE,73,0.0,0.0,57,0.00,CLR,,0.00,WeatherDisplay:10.37,2013-02-15 05:52:00,
2013-02-15 00:56:00,32.1,18.6,30.01,ENE,73,0.0,0.0,57,0.00,CLR,,0.00,WeatherDisplay:10.37,2013-02-15 05:56:00,
2013-02-15 00:57:00,31.8,18.3,30.01,ENE,73,0.0,0.0,57,0.00,CLR,,0.00,WeatherDisplay:10.37,2013-02-15 05:57:00,
2013-02-15 01:01:00,31.8,18.3,30.02,ENE,73,0.0,0.0,57,0.00,CLR,,0.00,WeatherDisplay:10.37,2013-02-15 06:01:00,
2013-02-15 01:02:00,31.0,17.9,30.02,ENE,73,0.0,0.0,58,0.00,CLR,,0.00,WeatherDisplay:10.37,2013-02-15 06:02:00,
2013-02-15 01:06:00,29.9,17.7,30.02,ENE,73,0.0,0.0,60,0.00,CLR,,0.00,WeatherDisplay:10.37,2013-02-15 06:06:00,
2013-02-15 01:07:00,29.9,18.1,30.02,ENE,73,0.0,0.0,61,0.00,CLR,,0.00,WeatherDisplay:10.37,2013-02-15 06:07:00,
2013-02-15 01:11:00,29.9,20.3,30.02,ENE,73,0.0,0.0,67,0.00,CLR,,0.00,WeatherDisplay:10.37,2013-02-15 06:11:00,
2013-02-15 01:12:00,29.9,20.6,30.02,ENE,73,0.0,0.0,68,0.00,CLR,,0.00,WeatherDisplay:10.37,2013-02-15 06:12:00,
2013-02-15 01:16:00,30.8,22.5,30.02,ENE,73,0.0,0.0,71,0.00,CLR,,0.00,WeatherDisplay:10.37,2013-02-15 06:16:00,
2013-02-15 01:17:00,30.8,22.8,30.02,ENE,73,0.0,0.0,72,0.00,CLR,,0.00,WeatherDisplay:10.37,2013-02-15 06:17:00,
2013-02-15 01:21:00,30.8,23.2,30.02,ENE,73,0.0,0.0,73,0.00,CLR,,0.00,WeatherDisplay:10.37,2013-02-15 06:21:00,
2013-02-15 01:22:00,30.8,23.5,30.02,ENE,73,0.0,0.0,74,0.00,CLR,,0.00,WeatherDisplay:10.37,2013-02-15 06:22:00,
2013-02-15 01:26:00,29.2,21.6,30.02,ENE,73,0.0,0.0,73,0.00,CLR,,0.00,WeatherDisplay:10.37,2013-02-15 06:26:00,
2013-02-15 01:27:00,29.2,21.6,30.02,ENE,73,0.0,0.0,73,0.00,CLR,,0.00,WeatherDisplay:10.37,2013-02-15 06:27:00,
2013-02-15 01:31:00,28.7,21.5,30.03,ENE,73,0.0,0.0,74,0.00,CLR,,0.00,WeatherDisplay:10.37,2013-02-15 06:31:00,
2013-02-15 01:32:00,28.7,21.5,30.03,ENE,73,0.0,0.0,74,0.00,CLR,,0.00,WeatherDisplay:10.37,2013-02-15 06:32:00,
2013-02-15 01:33:00,29.1,22.2,30.03,ENE,73,0.0,0.0,75,0.00,CLR,,0.00,WeatherDisplay:10.37,2013-02-15 06:33:00,
2013-02-15 01:37:00,29.8,22.2,30.03,ENE,73,0.0,0.0,73,0.00,CLR,,0.00,WeatherDisplay:10.37,2013-02-15 06:37:00,
2013-02-15 01:38:00,32.0,24.3,30.03,ENE,73,0.0,0.0,73,0.00,CLR,,0.00,WeatherDisplay:10.37,2013-02-15 06:38:00,
2013-02-15 01:42:00,30.6,23.3,30.03,ENE,73,0.0,0.0,74,0.00,CLR,,0.00,WeatherDisplay:10.37,2013-02-15 06:42:00,
2013-02-15 01:43:00,30.6,23.0,30.02,ENE,73,0.0,0.0,73,0.00,CLR,,0.00,WeatherDisplay:10.37,2013-02-15 06:43:00,
2013-02-15 01:47:00,31.1,23.5,30.03,ENE,73,0.0,0.0,73,0.00,CLR,,0.00,WeatherDisplay:10.37,2013-02-15 06:47:00,
2013-02-15 01:48:00,30.1,22.2,30.02,ENE,73,0.0,0.0,72,0.00,CLR,,0.00,WeatherDisplay:10.37,2013-02-15 06:48:00,
2013-02-15 01:52:00,29.1,19.5,30.03,ENE,73,0.0,0.0,67,0.00,CLR,,0.00,WeatherDisplay:10.37,2013-02-15 06:52:00,
2013-02-15 01:53:00,29.3,19.7,30.03,ENE,73,0.0,0.0,67,0.00,CLR,,0.00,WeatherDisplay:10.37,2013-02-15 06:53:00,
2013-02-15 01:57:00,30.1,20.1,30.03,ENE,73,0.0,0.0,66,0.00,CLR,,0.00,WeatherDisplay:10.37,2013-02-15 06:57:00,
2013-02-15 01:58:00,29.4,19.4,30.03,ENE,73,0.0,0.0,66,0.00,CLR,,0.00,WeatherDisplay:10.37,2013-02-15 06:58:00,
2013-02-15 01:59:00,29.5,19.2,30.03,ENE,73,0.0,0.0,65,0.00,CLR,,0.00,WeatherDisplay:10.37,2013-02-15 06:59:00,
2013-02-15 02:02:00,29.5,18.8,30.03,ENE,73,0.0,0.0,64,0.00,CLR,,0.00,WeatherDisplay:10.37,2013-02-15 07:02:00,
2013-02-15 02:03:00,29.5,18.8,30.03,ENE,73,0.0,0.0,64,0.00,CLR,,0.00,WeatherDisplay:10.37,2013-02-15 07:03:00,
2013-02-15 02:04:00,29.5,18.4,30.03,ENE,73,0.0,0.0,63,0.00,CLR,,0.00,WeatherDisplay:10.37,2013-02-15 07:04:00,
2013-02-15 02:08:00,31.5,20.7,30.03,ENE,73,0.0,0.0,64,0.00,CLR,,0.00,WeatherDisplay:10.37,2013-02-15 07:08:00,
2013-02-15 02:09:00,31.5,21.8,30.03,ENE,73,0.0,0.0,67,0.00,CLR,,0.00,WeatherDisplay:10.37,2013-02-15 07:09:00,
2013-02-15 02:13:00,30.2,21.2,30.03,ENE,73,0.0,0.0,69,0.00,CLR,,0.00,WeatherDisplay:10.37,2013-02-15 07:13:00,
2013-02-15 02:14:00,30.8,22.2,30.03,ENE,73,0.0,0.0,70,0.00,CLR,,0.00,WeatherDisplay:10.37,2013-02-15 07:14:00,
2013-02-15 02:18:00,29.7,20.4,30.02,ENE,73,0.0,0.0,68,0.00,CLR,,0.00,WeatherDisplay:10.37,2013-02-15 07:18:00,
2013-02-15 02:19:00,30.1,20.5,30.03,ENE,73,0.0,0.0,67,0.00,CLR,,0.00,WeatherDisplay:10.37,2013-02-15 07:19:00,
2013-02-15 02:23:00,30.4,17.4,30.03,ENE,73,0.0,0.0,58,0.00,CLR,,0.00,WeatherDisplay:10.37,2013-02-15 07:23:00,
2013-02-15 02:24:00,31.9,18.8,30.03,ENE,73,0.0,0.0,58,0.00,CLR,,0.00,WeatherDisplay:10.37,2013-02-15 07:24:00,
2013-02-15 02:28:00,31.3,18.2,30.03,ENE,73,0.0,0.0,58,0.00,CLR,,0.00,WeatherDisplay:10.37,2013-02-15 07:28:00,
2013-02-15 02:29:00,31.1,18.4,30.03,ENE,73,0.0,0.0,59,0.00,CLR,,0.00,WeatherDisplay:10.37,2013-02-15 07:29:00,
2013-02-15 02:33:00,32.5,20.5,30.03,East,92,1.0,4.4,61,0.00,CLR,,0.00,WeatherDisplay:10.37,2013-02-15 07:33:00,
2013-02-15 02:34:00,32.5,20.9,30.03,East,92,4.4,4.7,62,0.00,CLR,,0.00,WeatherDisplay:10.37,2013-02-15 07:34:00,
2013-02-15 02:35:00,32.5,21.3,30.03,East,92,3.7,4.6,63,0.00,CLR,,0.00,WeatherDisplay:10.37,2013-02-15 07:35:00,
2013-02-15 02:38:00,32.5,22.0,30.03,ENE,69,0.0,0.0,65,0.00,CLR,,0.00,WeatherDisplay:10.37,2013-02-15 07:38:00,
2013-02-15 02:39:00,32.2,21.4,30.03,ENE,69,0.0,0.0,64,0.00,CLR,,0.00,WeatherDisplay:10.37,2013-02-15 07:39:00,
2013-02-15 02:40:00,32.0,21.2,30.03,ENE,69,0.0,0.0,64,0.00,CLR,,0.00,WeatherDisplay:10.37,2013-02-15 07:40:00,
2013-02-15 02:43:00,30.8,19.3,30.03,ENE,69,0.0,0.0,62,0.00,CLR,,0.00,WeatherDisplay:10.37,2013-02-15 07:43:00,
2013-02-15 02:44:00,31.2,20.1,30.03,ENE,69,0.0,0.0,63,0.00,CLR,,0.00,WeatherDisplay:10.37,2013-02-15 07:44:00,
2013-02-15 02:45:00,30.6,19.5,30.03,ENE,69,0.0,0.0,63,0.00,CLR,,0.00,WeatherDisplay:10.37,2013-02-15 07:45:00,
2013-02-15 02:48:00,31.0,19.5,30.03,ENE,69,0.0,0.0,62,0.00,CLR,,0.00,WeatherDisplay:10.37,2013-02-15 07:48:00,
2013-02-15 02:49:00,30.3,18.5,30.03,ENE,69,0.0,0.0,61,0.00,CLR,,0.00,WeatherDisplay:10.37,2013-02-15 07:49:00,
2013-02-15 02:50:00,30.9,19.0,30.03,ENE,69,0.0,0.0,61,0.00,CLR,,0.00,WeatherDisplay:10.37,2013-02-15 07:50:00,
2013-02-15 02:53:00,30.7,19.6,30.03,ENE,69,0.0,0.0,63,0.00,CLR,,0.00,WeatherDisplay:10.37,2013-02-15 07:53:00,
2013-02-15 02:54:00,31.3,20.5,30.03,ENE,69,0.0,0.0,64,0.00,CLR,,0.00,WeatherDisplay:10.37,2013-02-15 07:54:00,
2013-02-15 02:55:00,31.0,21.0,30.03,ENE,69,0.0,0.0,66,0.00,CLR,,0.00,WeatherDisplay:10.37,2013-02-15 07:55:00,
2013-02-15 02:58:00,33.9,23.0,30.03,ENE,69,0.0,0.0,64,0.00,CLR,,0.00,WeatherDisplay:10.37,2013-02-15 07:58:00,
2013-02-15 02:59:00,33.9,22.2,30.03,ENE,69,0.0,0.0,62,0.00,CLR,,0.00,WeatherDisplay:10.37,2013-02-15 07:59:00,
2013-02-15 03:01:00,33.1,20.3,30.03,ENE,69,0.0,0.0,59,0.00,CLR,,0.00,WeatherDisplay:10.37,2013-02-15 08:01:00,
2013-02-15 03:04:00,33.9,21.1,30.03,ENE,69,0.0,0.0,59,0.00,CLR,,0.00,WeatherDisplay:10.37,2013-02-15 08:04:00,
2013-02-15 03:05:00,34.3,21.0,30.03,ENE,69,0.0,0.0,58,0.00,CLR,,0.00,WeatherDisplay:10.37,2013-02-15 08:05:00,
2013-02-15 03:06:00,33.0,20.2,30.02,ENE,69,0.0,0.0,59,0.00,CLR,,0.00,WeatherDisplay:10.37,2013-02-15 08:06:00,
2013-02-15 03:09:00,33.0,19.4,30.03,ENE,69,0.0,0.0,57,0.00,CLR,,0.00,WeatherDisplay:10.37,2013-02-15 08:09:00,
2013-02-15 03:10:00,32.4,18.8,30.03,ENE,69,0.0,0.0,57,0.00,CLR,,0.00,WeatherDisplay:10.37,2013-02-15 08:10:00,
2013-02-15 03:11:00,33.6,20.0,30.03,ENE,69,0.0,0.0,57,0.00,CLR,,0.00,WeatherDisplay:10.37,2013-02-15 08:11:00,
2013-02-15 03:14:00,33.7,20.1,30.03,ENE,69,0.0,0.0,57,0.00,CLR,,0.00,WeatherDisplay:10.37,2013-02-15 08:14:00,
2013-02-15 03:15:00,34.7,21.0,30.02,ENE,69,0.0,0.0,57,0.00,CLR,,0.00,WeatherDisplay:10.37,2013-02-15 08:15:00,
2013-02-15 03:16:00,33.2,18.3,30.03,ENE,69,0.0,0.0,54,0.00,CLR,,0.00,WeatherDisplay:10.37,2013-02-15 08:16:00,
2013-02-15 03:19:00,31.0,17.9,30.02,ENE,69,0.0,0.0,58,0.00,CLR,,0.00,WeatherDisplay:10.37,2013-02-15 08:19:00,
2013-02-15 03:20:00,31.5,18.8,30.02,ENE,69,0.0,0.0,59,0.00,CLR,,0.00,WeatherDisplay:10.37,2013-02-15 08:20:00,
2013-02-15 03:21:00,31.7,19.4,30.02,ENE,69,0.0,0.0,60,0.00,CLR,,0.00,WeatherDisplay:10.37,2013-02-15 08:21:00,
2013-02-15 03:24:00,34.0,22.3,30.02,ENE,69,0.0,0.0,62,0.00,CLR,,0.00,WeatherDisplay:10.37,2013-02-15 08:24:00,
2013-02-15 03:25:00,33.2,21.6,30.02,ENE,69,0.0,0.0,62,0.00,CLR,,0.00,WeatherDisplay:10.37,2013-02-15 08:25:00,
2013-02-15 03:26:00,33.0,21.4,30.02,ENE,69,0.0,0.0,62,0.00,CLR,,0.00,WeatherDisplay:10.37,2013-02-15 08:26:00,
2013-02-15 03:27:00,33.0,21.0,30.02,ENE,69,0.0,0.0,61,0.00,CLR,,0.00,WeatherDisplay:10.37,2013-02-15 08:27:00,
2013-02-15 03:30:00,34.0,22.0,30.02,ENE,69,0.0,0.0,61,0.00,CLR,,0.00,WeatherDisplay:10.37,2013-02-15 08:30:00,
2013-02-15 03:31:00,34.0,19.9,30.02,ENE,69,0.0,0.0,56,0.00,CLR,,0.00,WeatherDisplay:10.37,2013-02-15 08:31:00,
2013-02-15 03:32:00,34.3,20.2,30.02,ENE,69,0.0,0.0,56,0.00,CLR,,0.00,WeatherDisplay:10.37,2013-02-15 08:32:00,
2013-02-15 03:35:00,36.0,19.1,30.02,NNW,344,1.5,4.6,50,0.00,CLR,,0.00,WeatherDisplay:10.37,2013-02-15 08:35:00,
2013-02-15 03:36:00,36.4,19.0,30.02,NNW,344,0.0,4.6,49,0.00,CLR,,0.00,WeatherDisplay:10.37,2013-02-15 08:36:00,
2013-02-15 03:37:00,36.8,18.9,30.02,NNW,344,0.0,0.0,48,0.00,CLR,,0.00,WeatherDisplay:10.37,2013-02-15 08:37:00,
2013-02-15 03:40:00,37.0,19.1,30.02,NNW,344,0.0,0.0,48,0.00,CLR,,0.00,WeatherDisplay:10.37,2013-02-15 08:40:00,
2013-02-15 03:41:00,37.4,19.0,30.02,NNW,344,0.0,0.0,47,0.00,CLR,,0.00,WeatherDisplay:10.37,2013-02-15 08:41:00,
2013-02-15 03:42:00,37.6,19.2,30.02,NNW,344,0.0,0.0,47,0.00,CLR,,0.00,WeatherDisplay:10.37,2013-02-15 08:42:00,
2013-02-15 03:45:00,37.6,19.2,30.02,NNW,344,0.0,0.0,47,0.00,CLR,,0.00,WeatherDisplay:10.37,2013-02-15 08:45:00,
2013-02-15 03:46:00,37.7,19.3,30.02,NNW,344,0.0,0.0,47,0.00,CLR,,0.00,WeatherDisplay:10.37,2013-02-15 08:46:00,
2013-02-15 03:47:00,37.6,19.2,30.02,NNW,344,0.0,0.0,47,0.00,CLR,,0.00,WeatherDisplay:10.37,2013-02-15 08:47:00,
2013-02-15 03:50:00,37.1,19.7,30.02,NNW,344,0.0,0.0,49,0.00,CLR,,0.00,WeatherDisplay:10.37,2013-02-15 08:50:00,
2013-02-15 03:51:00,37.3,19.9,30.02,NNW,344,0.0,0.0,49,0.00,CLR,,0.00,WeatherDisplay:10.37,2013-02-15 08:51:00,
2013-02-15 03:52:00,37.3,19.9,30.02,NNW,344,0.0,0.0,49,0.00,CLR,,0.00,WeatherDisplay:10.37,2013-02-15 08:52:00,
2013-02-15 03:55:00,35.7,18.4,30.02,NNW,344,0.0,0.0,49,0.00,CLR,,0.00,WeatherDisplay:10.37,2013-02-15 08:55:00,
2013-02-15 03:56:00,36.2,19.3,30.02,NNW,344,0.6,3.0,50,0.00,CLR,,0.00,WeatherDisplay:10.37,2013-02-15 08:56:00,
2013-02-15 03:57:00,37.1,19.7,30.02,NNW,344,0.0,0.0,49,0.00,CLR,,0.00,WeatherDisplay:10.37,2013-02-15 08:57:00,
2013-02-15 04:00:00,36.8,19.4,30.02,NNW,344,0.0,0.0,49,0.00,CLR,,0.00,WeatherDisplay:10.37,2013-02-15 09:00:00,
2013-02-15 04:01:00,36.8,19.4,30.02,NNW,344,0.0,0.0,49,0.00,CLR,,0.00,WeatherDisplay:10.37,2013-02-15 09:01:00,
2013-02-15 04:02:00,36.6,19.2,30.02,NNW,344,0.0,0.0,49,0.00,CLR,,0.00,WeatherDisplay:10.37,2013-02-15 09:02:00,
2013-02-15 04:05:00,37.6,19.7,30.02,NNW,344,0.0,0.0,48,0.00,CLR,,0.00,WeatherDisplay:10.37,2013-02-15 09:05:00,
2013-02-15 04:06:00,37.4,19.5,30.02,NNW,344,0.0,0.0,48,0.00,CLR,,0.00,WeatherDisplay:10.37,2013-02-15 09:06:00,
2013-02-15 04:07:00,37.2,19.3,30.02,NNW,344,0.0,0.0,48,0.00,CLR,,0.00,WeatherDisplay:10.37,2013-02-15 09:07:00,
2013-02-15 04:10:00,37.6,19.7,30.02,NNW,344,0.0,0.0,48,0.00,CLR,,0.00,WeatherDisplay:10.37,2013-02-15 09:10:00,
2013-02-15 04:11:00,37.6,19.7,30.02,NNW,344,0.0,0.0,48,0.00,CLR,,0.00,WeatherDisplay:10.37,2013-02-15 09:11:00,
2013-02-15 04:12:00,37.7,19.8,30.02,NNW,344,0.0,0.0,48,0.00,CLR,,0.00,WeatherDisplay:10.37,2013-02-15 09:12:00,
2013-02-15 04:15:00,38.1,19.6,30.02,West,263,0.0,2.3,47,0.00,CLR,,0.00,WeatherDisplay:10.37,2013-02-15 09:15:00,
2013-02-15 04:16:00,38.1,19.6,30.02,West,263,0.0,0.0,47,0.00,CLR,,0.00,WeatherDisplay:10.37,2013-02-15 09:16:00,
2013-02-15 04:17:00,37.9,19.4,30.02,West,263,0.0,0.0,47,0.00,CLR,,0.00,WeatherDisplay:10.37,2013-02-15 09:17:00,
2013-02-15 04:21:00,38.1,20.1,30.02,West,263,0.0,0.0,48,0.00,CLR,,0.00,WeatherDisplay:10.37,2013-02-15 09:21:00,
2013-02-15 04:22:00,37.9,19.9,30.02,West,263,0.0,0.0,48,0.00,CLR,,0.00,WeatherDisplay:10.37,2013-02-15 09:22:00,
2013-02-15 04:23:00,38.0,20.0,30.02,West,263,0.0,0.0,48,0.00,CLR,,0.00,WeatherDisplay:10.37,2013-02-15 09:23:00,
2013-02-15 04:26:00,35.3,17.5,30.02,West,263,0.0,0.0,48,0.00,CLR,,0.00,WeatherDisplay:10.37,2013-02-15 09:26:00,
2013-02-15 04:27:00,34.4,16.7,30.02,West,263,0.0,0.0,48,0.00,CLR,,0.00,WeatherDisplay:10.37,2013-02-15 09:27:00,
2013-02-15 04:28:00,34.3,16.6,30.02,West,263,0.0,0.0,48,0.00,CLR,,0.00,WeatherDisplay:10.37,2013-02-15 09:28:00,
2013-02-15 04:31:00,34.4,19.0,30.02,West,263,0.0,0.0,53,0.00,CLR,,0.00,WeatherDisplay:10.37,2013-02-15 09:31:00,
2013-02-15 04:32:00,35.6,20.1,30.02,West,263,0.0,0.0,53,0.00,CLR,,0.00,WeatherDisplay:10.37,2013-02-15 09:32:00,
2013-02-15 04:33:00,33.6,18.3,30.02,West,263,0.0,0.0,53,0.00,CLR,,0.00,WeatherDisplay:10.37,2013-02-15 09:33:00,
2013-02-15 04:36:00,32.9,20.5,30.01,West,263,0.0,0.0,60,0.00,CLR,,0.00,WeatherDisplay:10.37,2013-02-15 09:36:00,
2013-02-15 04:37:00,33.9,20.7,30.02,West,263,0.0,0.0,58,0.00,CLR,,0.00,WeatherDisplay:10.37,2013-02-15 09:37:00,
2013-02-15 04:38:00,33.0,19.4,30.02,West,263,0.0,0.0,57,0.00,CLR,,0.00,WeatherDisplay:10.37,2013-02-15 09:38:00,
2013-02-15 04:41:00,33.4,21.8,30.02,West,263,0.0,0.0,62,0.00,CLR,,0.00,WeatherDisplay:10.37,2013-02-15 09:41:00,
2013-02-15 04:42:00,33.1,21.1,30.02,West,263,0.0,0.0,61,0.00,CLR,,0.00,WeatherDisplay:10.37,2013-02-15 09:42:00,
2013-02-15 04:43:00,34.1,21.7,30.02,West,263,0.0,0.0,60,0.00,CLR,,0.00,WeatherDisplay:10.37,2013-02-15 09:43:00,
2013-02-15 04:47:00,33.8,20.6,30.03,West,263,0.0,0.0,58,0.00,CLR,,0.00,WeatherDisplay:10.37,2013-02-15 09:47:00,
2013-02-15 04:48:00,33.1,21.9,30.03,West,263,0.0,0.0,63,0.00,CLR,,0.00,WeatherDisplay:10.37,2013-02-15 09:48:00,
2013-02-15 04:49:00,32.7,21.5,30.03,West,263,0.0,0.0,63,0.00,CLR,,0.00,WeatherDisplay:10.37,2013-02-15 09:49:00,
2013-02-15 04:52:00,33.4,21.8,30.03,West,263,0.0,0.0,62,0.00,CLR,,0.00,WeatherDisplay:10.37,2013-02-15 09:52:00,
2013-02-15 04:53:00,33.1,21.1,30.03,West,263,0.0,0.0,61,0.00,CLR,,0.00,WeatherDisplay:10.37,2013-02-15 09:53:00,
2013-02-15 04:54:00,32.9,20.9,30.03,West,263,0.0,0.0,61,0.00,CLR,,0.00,WeatherDisplay:10.37,2013-02-15 09:54:00,
2013-02-15 04:57:00,34.8,22.3,30.03,West,263,0.0,0.0,60,0.00,CLR,,0.00,WeatherDisplay:10.37,2013-02-15 09:57:00,
2013-02-15 04:58:00,34.6,21.7,30.03,West,263,0.0,0.0,59,0.00,CLR,,0.00,WeatherDisplay:10.37,2013-02-15 09:58:00,
2013-02-15 04:59:00,34.6,21.7,30.03,West,263,0.0,0.0,59,0.00,CLR,,0.00,WeatherDisplay:10.37,2013-02-15 09:59:00,
2013-02-15 05:02:00,34.3,22.6,30.03,West,263,0.0,0.0,62,0.00,CLR,,0.00,WeatherDisplay:10.37,2013-02-15 10:02:00,
2013-02-15 05:04:00,34.9,23.2,30.02,West,263,0.0,0.0,62,0.00,CLR,,0.00,WeatherDisplay:10.37,2013-02-15 10:04:00,
2013-02-15 05:08:00,34.3,21.8,30.03,West,263,0.0,0.0,60,0.00,CLR,,0.00,WeatherDisplay:10.37,2013-02-15 10:08:00,
2013-02-15 05:09:00,33.8,21.4,30.03,West,263,0.0,0.0,60,0.00,CLR,,0.00,WeatherDisplay:10.37,2013-02-15 10:09:00,
2013-02-15 05:13:00,35.0,22.5,30.03,WNW,285,0.0,2.3,60,0.00,CLR,,0.00,WeatherDisplay:10.37,2013-02-15 10:13:00,
2013-02-15 05:14:00,35.2,22.3,30.03,WNW,285,0.0,0.0,59,0.00,CLR,,0.00,WeatherDisplay:10.37,2013-02-15 10:14:00,
2013-02-15 05:18:00,35.8,22.9,30.03,WNW,285,0.0,0.0,59,0.00,CLR,,0.00,WeatherDisplay:10.37,2013-02-15 10:18:00,
2013-02-15 05:19:00,35.3,22.0,30.03,WNW,285,0.0,0.0,58,0.00,CLR,,0.00,WeatherDisplay:10.37,2013-02-15 10:19:00,
2013-02-15 05:23:00,34.4,20.7,30.04,WNW,285,0.0,0.0,57,0.00,CLR,,0.00,WeatherDisplay:10.37,2013-02-15 10:23:00,
2013-02-15 05:24:00,34.4,21.1,30.03,WNW,285,0.0,0.0,58,0.00,CLR,,0.00,WeatherDisplay:10.37,2013-02-15 10:24:00,
2013-02-15 05:28:00,35.0,22.1,30.03,WNW,285,0.0,0.0,59,0.00,CLR,,0.00,WeatherDisplay:10.37,2013-02-15 10:28:00,
2013-02-15 05:29:00,35.2,22.3,30.03,WNW,285,0.0,0.0,59,0.00,CLR,,0.00,WeatherDisplay:10.37,2013-02-15 10:29:00,
2013-02-15 05:30:00,35.2,21.9,30.03,WNW,285,0.0,0.0,58,0.00,CLR,,0.00,WeatherDisplay:10.37,2013-02-15 10:30:00,
2013-02-15 05:33:00,34.5,21.2,30.03,WNW,285,0.0,0.0,58,0.00,CLR,,0.00,WeatherDisplay:10.37,2013-02-15 10:33:00,
2013-02-15 05:34:00,34.1,21.3,30.03,WNW,285,0.0,0.0,59,0.00,CLR,,0.00,WeatherDisplay:10.37,2013-02-15 10:34:00,
2013-02-15 05:35:00,34.4,22.7,30.03,WNW,285,0.0,0.0,62,0.00,CLR,,0.00,WeatherDisplay:10.37,2013-02-15 10:35:00,
2013-02-15 05:38:00,32.8,20.8,30.03,WNW,285,0.0,0.0,61,0.00,CLR,,0.00,WeatherDisplay:10.37,2013-02-15 10:38:00,
2013-02-15 05:39:00,32.8,20.8,30.03,WNW,285,0.0,0.0,61,0.00,CLR,,0.00,WeatherDisplay:10.37,2013-02-15 10:39:00,
2013-02-15 05:40:00,33.3,20.9,30.03,WNW,285,0.0,0.0,60,0.00,CLR,,0.00,WeatherDisplay:10.37,2013-02-15 10:40:00,
2013-02-15 05:43:00,32.2,21.0,30.03,WNW,285,0.0,0.0,63,0.00,CLR,,0.00,WeatherDisplay:10.37,2013-02-15 10:43:00,
2013-02-15 05:44:00,32.5,21.7,30.03,WNW,285,0.0,0.0,64,0.00,CLR,,0.00,WeatherDisplay:10.37,2013-02-15 10:44:00,
2013-02-15 05:45:00,32.3,22.2,30.03,WNW,285,0.0,0.0,66,0.00,CLR,,0.00,WeatherDisplay:10.37,2013-02-15 10:45:00,
2013-02-15 05:48:00,34.0,24.2,30.03,WNW,285,0.0,0.0,67,0.00,CLR,,0.00,WeatherDisplay:10.37,2013-02-15 10:48:00,
2013-02-15 05:49:00,33.1,23.3,30.04,WNW,285,0.0,0.0,67,0.00,CLR,,0.00,WeatherDisplay:10.37,2013-02-15 10:49:00,
2013-02-15 05:50:00,33.1,22.6,30.04,WNW,285,0.0,0.0,65,0.00,CLR,,0.00,WeatherDisplay:10.37,2013-02-15 10:50:00,
2013-02-15 05:51:00,34.1,23.6,30.03,WNW,285,0.0,0.0,65,0.00,CLR,,0.00,WeatherDisplay:10.37,2013-02-15 10:51:00,
2013-02-15 05:53:00,34.3,23.7,30.03,WNW,285,0.0,0.0,65,0.00,CLR,,0.00,WeatherDisplay:10.37,2013-02-15 10:53:00,
2013-02-15 05:54:00,34.3,23.7,30.03,WNW,285,0.0,0.0,65,0.00,CLR,,0.00,WeatherDisplay:10.37,2013-02-15 10:54:00,
2013-02-15 05:55:00,31.8,21.4,30.03,WNW,285,0.0,0.0,65,0.00,CLR,,0.00,WeatherDisplay:10.37,2013-02-15 10:55:00,
2013-02-15 05:56:00,31.8,21.4,30.03,WNW,285,0.0,0.0,65,0.00,CLR,,0.00,WeatherDisplay:10.37,2013-02-15 10:56:00,
2013-02-15 05:59:00,33.8,23.3,30.03,WNW,285,0.0,0.0,65,0.00,CLR,,0.00,WeatherDisplay:10.37,2013-02-15 10:59:00,
2013-02-15 06:00:00,32.8,22.0,30.03,WNW,285,0.0,0.0,64,0.00,CLR,,0.00,WeatherDisplay:10.37,2013-02-15 11:00:00,
2013-02-15 06:01:00,32.8,22.0,30.03,WNW,285,0.0,0.0,64,0.00,CLR,,0.00,WeatherDisplay:10.37,2013-02-15 11:01:00,
2013-02-15 06:04:00,29.2,18.9,30.03,WNW,285,0.0,0.0,65,0.00,CLR,,0.00,WeatherDisplay:10.37,2013-02-15 11:04:00,
2013-02-15 06:05:00,28.8,19.2,30.03,WNW,285,0.0,0.0,67,0.00,CLR,,0.00,WeatherDisplay:10.37,2013-02-15 11:05:00,
2013-02-15 06:06:00,28.7,19.5,30.04,WNW,285,0.0,0.0,68,0.00,CLR,,0.00,WeatherDisplay:10.37,2013-02-15 11:06:00,
2013-02-15 06:09:00,29.8,21.2,30.04,WNW,285,0.0,0.0,70,0.00,CLR,,0.00,WeatherDisplay:10.37,2013-02-15 11:09:00,
2013-02-15 06:10:00,30.0,22.1,30.04,WNW,285,0.0,0.0,72,0.00,CLR,,0.00,WeatherDisplay:10.37,2013-02-15 11:10:00,
2013-02-15 06:11:00,29.2,21.3,30.04,WNW,285,0.0,0.0,72,0.00,CLR,,0.00,WeatherDisplay:10.37,2013-02-15 11:11:00,
2013-02-15 06:14:00,29.9,22.0,30.04,WNW,285,0.0,0.0,72,0.00,CLR,,0.00,WeatherDisplay:10.37,2013-02-15 11:14:00,
2013-02-15 06:15:00,29.5,21.6,30.04,WNW,285,0.0,0.0,72,0.00,CLR,,0.00,WeatherDisplay:10.37,2013-02-15 11:15:00,
2013-02-15 06:16:00,32.7,25.0,30.04,WNW,285,0.0,0.0,73,0.00,CLR,,0.00,WeatherDisplay:10.37,2013-02-15 11:16:00,
2013-02-15 06:19:00,30.5,23.5,30.04,WNW,285,0.0,0.0,75,0.00,CLR,,0.00,WeatherDisplay:10.37,2013-02-15 11:19:00,
2013-02-15 06:20:00,30.8,24.1,30.04,WNW,285,0.0,0.0,76,0.00,CLR,,0.00,WeatherDisplay:10.37,2013-02-15 11:20:00,
2013-02-15 06:21:00,30.8,25.4,30.04,WNW,285,0.0,0.0,80,0.00,CLR,,0.00,WeatherDisplay:10.37,2013-02-15 11:21:00,
2013-02-15 06:24:00,33.5,27.1,30.04,WNW,285,0.0,0.0,77,0.00,CLR,,0.00,WeatherDisplay:10.37,2013-02-15 11:24:00,
2013-02-15 06:25:00,32.1,25.4,30.04,WNW,285,0.0,0.0,76,0.00,CLR,,0.00,WeatherDisplay:10.37,2013-02-15 11:25:00,
2013-02-15 06:26:00,30.0,23.0,30.04,WNW,285,0.0,0.0,75,0.00,CLR,,0.00,WeatherDisplay:10.37,2013-02-15 11:26:00,
2013-02-15 06:29:00,30.9,23.9,30.04,WNW,285,0.0,0.0,75,0.00,CLR,,0.00,WeatherDisplay:10.37,2013-02-15 11:29:00,
2013-02-15 06:30:00,31.4,24.4,30.04,WNW,285,0.0,0.0,75,0.00,CLR,,0.00,WeatherDisplay:10.37,2013-02-15 11:30:00,
2013-02-15 06:31:00,30.6,23.6,30.04,WNW,285,0.0,0.0,75,0.00,CLR,,0.00,WeatherDisplay:10.37,2013-02-15 11:31:00,
2013-02-15 06:35:00,32.7,24.7,30.04,WNW,285,0.0,0.0,72,0.00,CLR,,0.00,WeatherDisplay:10.37,2013-02-15 11:35:00,
2013-02-15 06:36:00,32.5,24.1,30.04,WNW,285,0.0,0.0,71,0.00,CLR,,0.00,WeatherDisplay:10.37,2013-02-15 11:36:00,
2013-02-15 06:37:00,32.3,23.6,30.04,WNW,285,0.0,0.0,70,0.00,CLR,,0.00,WeatherDisplay:10.37,2013-02-15 11:37:00,
2013-02-15 06:40:00,32.3,22.9,30.04,WNW,285,0.0,0.0,68,0.00,CLR,,0.00,WeatherDisplay:10.37,2013-02-15 11:40:00,
2013-02-15 06:41:00,33.4,24.0,30.04,WNW,285,0.0,0.0,68,0.00,CLR,,0.00,WeatherDisplay:10.37,2013-02-15 11:41:00,
2013-02-15 06:42:00,32.9,23.1,30.04,WNW,285,0.0,0.0,67,0.00,CLR,,0.00,WeatherDisplay:10.37,2013-02-15 11:42:00,
2013-02-15 06:45:00,33.9,23.7,30.04,WNW,285,0.0,0.0,66,0.00,CLR,,0.00,WeatherDisplay:10.37,2013-02-15 11:45:00,
2013-02-15 06:46:00,33.2,23.1,30.04,WNW,285,0.0,0.0,66,0.00,CLR,,0.00,WeatherDisplay:10.37,2013-02-15 11:46:00,
2013-02-15 06:47:00,33.7,23.5,30.04,WNW,285,0.0,0.0,66,0.00,CLR,,0.00,WeatherDisplay:10.37,2013-02-15 11:47:00,
2013-02-15 06:50:00,33.6,23.8,30.04,WNW,285,0.0,0.0,67,0.00,CLR,,0.00,WeatherDisplay:10.37,2013-02-15 11:50:00,
2013-02-15 06:51:00,33.6,23.8,30.04,WNW,285,0.0,0.0,67,0.00,CLR,,0.00,WeatherDisplay:10.37,2013-02-15 11:51:00,
2013-02-15 06:52:00,32.8,23.0,30.04,WNW,285,0.0,0.0,67,0.00,CLR,,0.00,WeatherDisplay:10.37,2013-02-15 11:52:00,
2013-02-15 06:53:00,34.1,24.6,30.04,WNW,285,0.0,0.0,68,0.00,CLR,,0.00,WeatherDisplay:10.37,2013-02-15 11:53:00,
2013-02-15 06:55:00,30.9,21.9,30.04,WNW,285,0.0,0.0,69,0.00,CLR,,0.00,WeatherDisplay:10.37,2013-02-15 11:55:00,
2013-02-15 06:56:00,30.6,21.6,30.04,WNW,285,0.0,0.0,69,0.00,CLR,,0.00,WeatherDisplay:10.37,2013-02-15 11:56:00,
2013-02-15 06:57:00,31.0,22.0,30.04,WNW,285,0.0,0.0,69,0.00,CLR,,0.00,WeatherDisplay:10.37,2013-02-15 11:57:00,
2013-02-15 06:58:00,31.3,22.3,30.04,WNW,285,0.0,0.0,69,0.00,CLR,,0.00,WeatherDisplay:10.37,2013-02-15 11:58:00,
2013-02-15 07:01:00,29.9,21.3,30.04,WNW,285,0.0,0.0,70,0.00,CLR,,0.00,WeatherDisplay:10.37,2013-02-15 12:01:00,
2013-02-15 07:02:00,29.8,20.9,30.04,WNW,285,0.0,0.0,69,0.00,CLR,,0.00,WeatherDisplay:10.37,2013-02-15 12:02:00,
2013-02-15 07:03:00,30.4,21.4,30.04,WNW,285,0.0,0.0,69,0.00,CLR,,0.00,WeatherDisplay:10.37,2013-02-15 12:03:00,
2013-02-15 07:06:00,29.5,21.3,30.04,WNW,285,0.0,0.0,71,0.00,CLR,,0.00,WeatherDisplay:10.37,2013-02-15 12:06:00,
2013-02-15 07:07:00,30.0,21.7,30.04,WNW,285,0.0,0.0,71,0.00,CLR,,0.00,WeatherDisplay:10.37,2013-02-15 12:07:00,
2013-02-15 07:08:00,29.4,21.2,30.04,WNW,285,0.0,0.0,71,0.00,CLR,,0.00,WeatherDisplay:10.37,2013-02-15 12:08:00,
2013-02-15 07:12:00,30.9,22.9,30.04,WNW,285,0.0,0.0,72,0.00,CLR,,0.00,WeatherDisplay:10.37,2013-02-15 12:12:00,
2013-02-15 07:13:00,30.9,22.9,30.04,WNW,285,0.0,0.0,72,0.00,CLR,,0.00,WeatherDisplay:10.37,2013-02-15 12:13:00,
2013-02-15 07:17:00,30.7,24.0,30.04,WNW,285,0.0,0.0,76,0.00,CLR,,0.00,WeatherDisplay:10.37,2013-02-15 12:17:00,
2013-02-15 07:18:00,30.8,23.8,30.04,WNW,285,0.0,0.0,75,0.00,CLR,,0.00,WeatherDisplay:10.37,2013-02-15 12:18:00,
2013-02-15 07:22:00,28.4,21.8,30.04,WNW,285,0.0,0.0,76,0.00,CLR,,0.00,WeatherDisplay:10.37,2013-02-15 12:22:00,
2013-02-15 07:23:00,29.5,22.9,30.04,WNW,285,0.0,0.0,76,0.00,CLR,,0.00,WeatherDisplay:10.37,2013-02-15 12:23:00,
2013-02-15 07:27:00,29.5,23.5,30.05,WNW,285,0.0,0.0,78,0.00,CLR,,0.00,WeatherDisplay:10.37,2013-02-15 12:27:00,
2013-02-15 07:28:00,29.5,23.5,30.05,WNW,285,0.0,0.0,78,0.00,CLR,,0.00,WeatherDisplay:10.37,2013-02-15 12:28:00,
2013-02-15 07:32:00,29.2,22.9,30.05,WNW,285,0.0,0.0,77,0.00,CLR,,0.00,WeatherDisplay:10.37,2013-02-15 12:32:00,
2013-02-15 07:33:00,29.1,22.8,30.05,WNW,285,0.0,0.0,77,0.00,CLR,,0.00,WeatherDisplay:10.37,2013-02-15 12:33:00,
2013-02-15 07:37:00,28.6,22.3,30.05,WNW,285,0.0,0.0,77,0.00,CLR,,0.00,WeatherDisplay:10.37,2013-02-15 12:37:00,
2013-02-15 07:38:00,31.1,25.0,30.05,WNW,285,0.0,0.0,78,0.00,CLR,,0.00,WeatherDisplay:10.37,2013-02-15 12:38:00,
2013-02-15 07:39:00,31.1,25.0,30.05,WNW,285,0.0,0.0,78,0.00,CLR,,0.00,WeatherDisplay:10.37,2013-02-15 12:39:00,
2013-02-15 07:43:00,32.4,26.9,30.05,WNW,285,0.0,0.0,80,0.00,CLR,,0.00,WeatherDisplay:10.37,2013-02-15 12:43:00,
2013-02-15 07:44:00,32.4,26.9,30.06,WNW,285,0.0,0.0,80,0.00,CLR,,0.00,WeatherDisplay:10.37,2013-02-15 12:44:00,
2013-02-15 07:48:00,31.1,25.3,30.06,WNW,285,0.0,0.0,79,0.00,CLR,,0.00,WeatherDisplay:10.37,2013-02-15 12:48:00,
2013-02-15 07:49:00,31.1,25.3,30.06,WNW,285,0.0,0.0,79,0.00,CLR,,0.00,WeatherDisplay:10.37,2013-02-15 12:49:00,
2013-02-15 07:53:00,34.6,27.8,30.06,WNW,285,0.0,0.0,76,0.00,CLR,,0.00,WeatherDisplay:10.37,2013-02-15 12:53:00,
2013-02-15 07:54:00,35.2,28.1,30.06,WNW,285,0.0,0.0,75,0.00,CLR,,0.00,WeatherDisplay:10.37,2013-02-15 12:54:00,
2013-02-15 07:58:00,36.9,28.0,30.06,WNW,285,0.0,0.0,70,0.00,CLR,,0.00,WeatherDisplay:10.37,2013-02-15 12:58:00,
2013-02-15 07:59:00,37.4,28.2,30.06,WNW,285,0.0,0.0,69,0.00,CLR,,0.00,WeatherDisplay:10.37,2013-02-15 12:59:00,
2013-02-15 08:03:00,38.5,28.1,30.06,WNW,285,0.0,0.0,66,0.00,CLR,,0.00,WeatherDisplay:10.37,2013-02-15 13:03:00,
2013-02-15 08:04:00,38.8,28.0,30.06,WNW,285,0.0,0.0,65,0.00,CLR,,0.00,WeatherDisplay:10.37,2013-02-15 13:04:00,
2013-02-15 08:08:00,38.9,24.1,30.07,WNW,285,0.0,0.0,55,0.00,CLR,,0.00,WeatherDisplay:10.37,2013-02-15 13:08:00,
2013-02-15 08:09:00,38.8,21.3,30.07,WNW,285,0.0,0.0,49,0.00,CLR,,0.00,WeatherDisplay:10.37,2013-02-15 13:09:00,
2013-02-15 08:13:00,38.3,22.6,30.06,WNW,285,0.0,0.0,53,0.00,CLR,,0.00,WeatherDisplay:10.37,2013-02-15 13:13:00,
2013-02-15 08:14:00,38.4,23.2,30.06,WNW,285,0.0,0.0,54,0.00,CLR,,0.00,WeatherDisplay:10.37,2013-02-15 13:14:00,
2013-02-15 08:18:00,37.7,20.2,30.07,WNW,285,0.0,0.0,49,0.00,CLR,,0.00,WeatherDisplay:10.37,2013-02-15 13:18:00,
2013-02-15 08:19:00,37.8,20.8,30.07,WNW,285,0.0,0.0,50,0.00,CLR,,0.00,WeatherDisplay:10.37,2013-02-15 13:19:00,
2013-02-15 08:23:00,37.1,21.5,30.07,WNW,285,0.0,0.0,53,0.00,CLR,,0.00,WeatherDisplay:10.37,2013-02-15 13:23:00,
2013-02-15 08:24:00,37.4,22.3,30.07,WNW,285,0.0,0.0,54,0.00,CLR,,0.00,WeatherDisplay:10.37,2013-02-15 13:24:00,
2013-02-15 08:25:00,36.9,22.2,30.07,WNW,285,0.0,0.0,55,0.00,CLR,,0.00,WeatherDisplay:10.37,2013-02-15 13:25:00,
2013-02-15 08:29:00,36.8,22.6,30.07,WNW,285,0.0,0.0,56,0.00,CLR,,0.00,WeatherDisplay:10.37,2013-02-15 13:29:00,
2013-02-15 08:30:00,37.3,23.0,30.07,WNW,285,0.0,0.0,56,0.00,CLR,,0.00,WeatherDisplay:10.37,2013-02-15 13:30:00,
2013-02-15 08:34:00,37.7,23.0,30.08,WNW,285,0.0,0.0,55,0.00,CLR,,0.00,WeatherDisplay:10.37,2013-02-15 13:34:00,
2013-02-15 08:35:00,37.4,23.1,30.08,WNW,285,0.0,0.0,56,0.00,CLR,,0.00,WeatherDisplay:10.37,2013-02-15 13:35:00,
2013-02-15 08:40:00,40.1,24.3,30.07,WNW,285,0.0,0.0,53,0.00,CLR,,0.00,WeatherDisplay:10.37,2013-02-15 13:40:00,
2013-02-15 08:45:00,40.9,18.4,30.08,WNW,285,0.0,0.0,40,0.00,CLR,,0.00,WeatherDisplay:10.37,2013-02-15 13:45:00,
2013-02-15 08:50:00,39.6,21.0,30.08,WNW,285,0.0,0.0,47,0.00,CLR,,0.00,WeatherDisplay:10.37,2013-02-15 13:50:00,
2013-02-15 08:55:00,39.0,21.4,30.08,WNW,285,0.0,0.0,49,0.00,CLR,,0.00,WeatherDisplay:10.37,2013-02-15 13:55:00,
2013-02-15 08:56:00,38.9,21.3,30.08,WNW,285,0.0,0.0,49,0.00,CLR,,0.00,WeatherDisplay:10.37,2013-02-15 13:56:00,
2013-02-15 09:00:00,39.3,19.7,30.07,WNW,285,0.0,0.0,45,0.00,CLR,,0.00,WeatherDisplay:10.37,2013-02-15 14:00:00,
2013-02-15 09:01:00,40.0,20.3,30.07,WNW,285,0.0,0.0,45,0.00,CLR,,0.00,WeatherDisplay:10.37,2013-02-15 14:01:00,
2013-02-15 09:05:00,40.6,18.7,30.07,WNW,285,0.0,0.0,41,0.00,CLR,,0.00,WeatherDisplay:10.37,2013-02-15 14:05:00,
2013-02-15 09:06:00,41.3,19.3,30.08,WNW,285,0.0,0.0,41,0.00,CLR,,0.00,WeatherDisplay:10.37,2013-02-15 14:06:00,
2013-02-15 09:10:00,41.1,19.7,30.07,WNW,285,0.0,0.0,42,0.00,CLR,,0.00,WeatherDisplay:10.37,2013-02-15 14:10:00,
2013-02-15 09:11:00,41.1,19.7,30.07,WNW,285,0.0,0.0,42,0.00,CLR,,0.00,WeatherDisplay:10.37,2013-02-15 14:11:00,
2013-02-15 09:15:00,42.3,19.7,30.07,WNW,285,0.0,0.0,40,0.00,CLR,,0.00,WeatherDisplay:10.37,2013-02-15 14:15:00,
2013-02-15 09:16:00,42.2,18.4,30.07,WNW,285,0.0,0.0,38,0.00,CLR,,0.00,WeatherDisplay:10.37,2013-02-15 14:16:00,
2013-02-15 09:20:00,43.1,17.9,30.07,WNW,285,0.0,0.0,36,0.00,CLR,,0.00,WeatherDisplay:10.37,2013-02-15 14:20:00,
2013-02-15 09:21:00,43.1,17.9,30.07,WNW,285,0.0,0.0,36,0.00,CLR,,0.00,WeatherDisplay:10.37,2013-02-15 14:21:00,
2013-02-15 09:26:00,43.6,19.6,30.07,WNW,285,0.0,0.0,38,0.00,CLR,,0.00,WeatherDisplay:10.37,2013-02-15 14:26:00,
2013-02-15 09:31:00,44.3,17.7,30.07,WNW,285,0.0,0.0,34,0.00,CLR,,0.00,WeatherDisplay:10.37,2013-02-15 14:31:00,
2013-02-15 09:36:00,44.1,18.2,30.06,WNW,285,0.0,0.0,35,0.00,CLR,,0.00,WeatherDisplay:10.37,2013-02-15 14:36:00,
2013-02-15 09:41:00,45.5,16.6,30.06,WNW,285,0.0,0.0,31,0.00,CLR,,0.00,WeatherDisplay:10.37,2013-02-15 14:41:00,
2013-02-15 09:42:00,45.3,16.4,30.06,WNW,285,0.0,0.0,31,0.00,CLR,,0.00,WeatherDisplay:10.37,2013-02-15 14:42:00,
2013-02-15 09:46:00,43.5,19.5,30.06,NW,325,4.5,6.9,38,0.00,CLR,,0.00,WeatherDisplay:10.37,2013-02-15 14:46:00,
2013-02-15 09:47:00,43.5,20.2,30.06,NW,325,0.1,5.8,39,0.00,CLR,,0.00,WeatherDisplay:10.37,2013-02-15 14:47:00,
2013-02-15 09:51:00,43.6,20.8,30.06,NW,325,0.0,0.0,40,0.00,CLR,,0.00,WeatherDisplay:10.37,2013-02-15 14:51:00,
2013-02-15 09:52:00,43.6,20.2,30.06,NW,325,0.0,0.0,39,0.00,CLR,,0.00,WeatherDisplay:10.37,2013-02-15 14:52:00,
2013-02-15 09:56:00,43.2,19.9,30.06,NW,325,0.0,0.0,39,0.00,CLR,,0.00,WeatherDisplay:10.37,2013-02-15 14:56:00,
2013-02-15 09:57:00,43.9,20.5,30.06,NW,325,0.0,0.0,39,0.00,CLR,,0.00,WeatherDisplay:10.37,2013-02-15 14:57:00,
2013-02-15 10:01:00,43.9,21.1,30.06,North,353,0.4,4.6,40,0.00,CLR,,0.00,WeatherDisplay:10.37,2013-02-15 15:01:00,
2013-02-15 10:02:00,43.8,20.4,30.06,North,353,0.0,4.6,39,0.00,CLR,,0.00,WeatherDisplay:10.37,2013-02-15 15:02:00,
2013-02-15 10:06:00,44.1,20.7,30.06,West,267,0.0,0.0,39,0.00,CLR,,0.00,WeatherDisplay:10.37,2013-02-15 15:06:00,
2013-02-15 10:07:00,44.2,20.8,30.06,West,267,0.0,0.0,39,0.00,CLR,,0.00,WeatherDisplay:10.37,2013-02-15 15:07:00,
2013-02-15 10:11:00,45.2,19.1,30.06,NW,305,0.0,0.0,35,0.00,CLR,,0.00,WeatherDisplay:10.37,2013-02-15 15:11:00,
2013-02-15 10:12:00,45.3,19.2,30.06,NW,305,0.0,0.0,35,0.00,CLR,,0.00,WeatherDisplay:10.37,2013-02-15 15:12:00,
2013-02-15 10:16:00,45.3,19.2,30.06,WNW,301,1.5,5.8,35,0.00,CLR,,0.00,WeatherDisplay:10.37,2013-02-15 15:16:00,
2013-02-15 10:17:00,45.2,18.5,30.06,WNW,301,0.0,5.8,34,0.00,CLR,,0.00,WeatherDisplay:10.37,2013-02-15 15:17:00,
2013-02-15 10:18:00,45.7,19.6,30.06,WNW,301,0.0,0.0,35,0.00,CLR,,0.00,WeatherDisplay:10.37,2013-02-15 15:18:00,
2013-02-15 10:21:00,46.2,18.6,30.06,WNW,301,0.0,0.0,33,0.00,CLR,,0.00,WeatherDisplay:10.37,2013-02-15 15:21:00,
2013-02-15 10:22:00,46.1,18.6,30.06,WNW,301,0.0,0.0,33,0.00,CLR,,0.00,WeatherDisplay:10.37,2013-02-15 15:22:00,
2013-02-15 10:23:00,46.7,18.4,30.05,WNW,301,0.0,0.0,32,0.00,CLR,,0.00,WeatherDisplay:10.37,2013-02-15 15:23:00,
2013-02-15 10:27:00,46.8,18.5,30.05,WSW,253,1.3,4.6,32,0.00,CLR,,0.00,WeatherDisplay:10.37,2013-02-15 15:27:00,
2013-02-15 10:28:00,46.8,19.9,30.05,WSW,253,0.0,3.5,34,0.00,CLR,,0.00,WeatherDisplay:10.37,2013-02-15 15:28:00,
2013-02-15 10:32:00,47.8,18.6,30.05,WSW,253,0.0,0.0,31,0.00,CLR,,0.00,WeatherDisplay:10.37,2013-02-15 15:32:00,
2013-02-15 10:33:00,47.8,17.8,30.05,WSW,253,0.0,0.0,30,0.00,CLR,,0.00,WeatherDisplay:10.37,2013-02-15 15:33:00,
2013-02-15 10:34:00,48.4,16.7,30.05,WSW,253,0.0,0.0,28,0.00,CLR,,0.00,WeatherDisplay:10.37,2013-02-15 15:34:00,
2013-02-15 10:37:00,48.4,17.6,30.05,WSW,253,0.0,0.0,29,0.00,CLR,,0.00,WeatherDisplay:10.37,2013-02-15 15:37:00,
2013-02-15 10:38:00,48.4,15.9,30.05,WSW,253,0.0,0.0,27,0.00,CLR,,0.00,WeatherDisplay:10.37,2013-02-15 15:38:00,
2013-02-15 10:39:00,48.4,15.9,30.05,WSW,253,0.0,0.0,27,0.00,CLR,,0.00,WeatherDisplay:10.37,2013-02-15 15:39:00,
2013-02-15 10:42:00,48.5,15.1,30.04,WSW,253,0.0,0.0,26,0.00,CLR,,0.00,WeatherDisplay:10.37,2013-02-15 15:42:00,
2013-02-15 10:43:00,48.7,15.3,30.04,WSW,253,0.0,0.0,26,0.00,CLR,,0.00,WeatherDisplay:10.37,2013-02-15 15:43:00,
2013-02-15 10:44:00,49.1,15.6,30.04,WSW,253,0.0,0.0,26,0.00,CLR,,0.00,WeatherDisplay:10.37,2013-02-15 15:44:00,
2013-02-15 10:47:00,50.2,11.7,30.04,WSW,253,0.0,0.0,21,0.00,CLR,,0.00,WeatherDisplay:10.37,2013-02-15 15:47:00,
2013-02-15 10:49:00,50.1,10.5,30.04,WSW,253,0.0,0.0,20,0.00,CLR,,0.00,WeatherDisplay:10.37,2013-02-15 15:49:00,
2013-02-15 10:52:00,50.4,11.9,30.04,WSW,253,0.0,0.0,21,0.00,CLR,,0.00,WeatherDisplay:10.37,2013-02-15 15:52:00,
2013-02-15 10:53:00,50.7,11.0,30.04,WSW,253,0.0,0.0,20,0.00,CLR,,0.00,WeatherDisplay:10.37,2013-02-15 15:53:00,
2013-02-15 10:54:00,50.8,9.9,30.04,WSW,253,0.0,0.0,19,0.00,CLR,,0.00,WeatherDisplay:10.37,2013-02-15 15:54:00,
2013-02-15 10:57:00,50.3,9.5,30.04,WSW,253,0.0,0.0,19,0.00,CLR,,0.00,WeatherDisplay:10.37,2013-02-15 15:57:00,
2013-02-15 10:58:00,50.3,9.5,30.04,WSW,253,0.0,0.0,19,0.00,CLR,,0.00,WeatherDisplay:10.37,2013-02-15 15:58:00,
2013-02-15 10:59:00,50.8,9.9,30.04,North,4,0.0,0.0,19,0.00,CLR,,0.00,WeatherDisplay:10.37,2013-02-15 15:59:00,
2013-02-15 11:03:00,53.5,5.4,30.04,North,4,0.0,0.0,14,0.00,CLR,,0.00,WeatherDisplay:10.37,2013-02-15 16:03:00,
2013-02-15 11:04:00,52.5,6.1,30.04,North,4,0.0,0.0,15,0.00,CLR,,0.00,WeatherDisplay:10.37,2013-02-15 16:04:00,
2013-02-15 11:08:00,51.8,5.5,30.04,North,4,0.0,0.0,15,0.00,CLR,,0.00,WeatherDisplay:10.37,2013-02-15 16:08:00,
2013-02-15 11:09:00,52.1,9.8,30.04,WSW,253,0.1,2.8,18,0.00,CLR,,0.00,WeatherDisplay:10.37,2013-02-15 16:09:00,
2013-02-15 11:10:00,52.4,10.1,30.04,South,185,0.6,3.5,18,0.00,CLR,,0.00,WeatherDisplay:10.37,2013-02-15 16:10:00,
2013-02-15 11:13:00,52.0,7.1,30.03,SW,219,0.2,4.7,16,0.00,CLR,,0.00,WeatherDisplay:10.37,2013-02-15 16:13:00,
2013-02-15 11:14:00,53.4,6.8,30.03,SSW,205,0.0,2.3,15,0.00,CLR,,0.00,WeatherDisplay:10.37,2013-02-15 16:14:00,
2013-02-15 11:15:00,52.3,5.9,30.03,SSW,205,0.0,2.3,15,0.00,CLR,,0.00,WeatherDisplay:10.37,2013-02-15 16:15:00,
2013-02-15 11:18:00,51.1,10.2,30.03,WNW,288,1.1,3.5,19,0.00,CLR,,0.00,WeatherDisplay:10.37,2013-02-15 16:18:00,
2013-02-15 11:19:00,50.8,8.7,30.03,ESE,116,6.5,8.1,18,0.00,CLR,,0.00,WeatherDisplay:10.37,2013-02-15 16:19:00,
2013-02-15 11:20:00,50.9,8.8,30.03,ESE,102,6.7,8.1,18,0.00,CLR,,0.00,WeatherDisplay:10.37,2013-02-15 16:20:00,
2013-02-15 11:23:00,51.0,10.1,30.03,East,86,0.0,0.0,19,0.00,CLR,,0.00,WeatherDisplay:10.37,2013-02-15 16:23:00,
2013-02-15 11:24:00,52.9,9.2,30.03,East,86,0.7,3.5,17,0.00,CLR,,0.00,WeatherDisplay:10.37,2013-02-15 16:24:00,
2013-02-15 11:25:00,53.0,9.3,30.03,East,86,0.0,3.5,17,0.00,CLR,,0.00,WeatherDisplay:10.37,2013-02-15 16:25:00,
2013-02-15 11:28:00,55.1,5.0,30.03,East,86,0.0,0.0,13,0.00,CLR,,0.00,WeatherDisplay:10.37,2013-02-15 16:28:00,
2013-02-15 11:29:00,55.9,5.7,30.03,East,86,0.0,0.0,13,0.00,CLR,,0.00,WeatherDisplay:10.37,2013-02-15 16:29:00,
2013-02-15 11:30:00,55.9,5.7,30.03,East,86,0.0,0.0,13,0.00,CLR,,0.00,WeatherDisplay:10.37,2013-02-15 16:30:00,
2013-02-15 11:33:00,60.3,1.1,30.03,SE,143,0.0,0.0,9,0.00,CLR,,0.00,WeatherDisplay:10.37,2013-02-15 16:33:00,
2013-02-15 11:34:00,60.3,3.4,30.03,SE,143,0.0,0.0,10,0.00,CLR,,0.00,WeatherDisplay:10.37,2013-02-15 16:34:00,
2013-02-15 11:35:00,59.8,5.1,30.03,SE,143,0.0,0.0,11,0.00,CLR,,0.00,WeatherDisplay:10.37,2013-02-15 16:35:00,
2013-02-15 11:36:00,60.3,7.4,30.02,SE,143,0.0,0.0,12,0.00,CLR,,0.00,WeatherDisplay:10.37,2013-02-15 16:36:00,
2013-02-15 11:39:00,59.5,6.8,30.02,SE,143,0.0,0.0,12,0.00,CLR,,0.00,WeatherDisplay:10.37,2013-02-15 16:39:00,
2013-02-15 11:40:00,60.4,3.5,30.02,South,171,1.4,4.6,10,0.00,CLR,,0.00,WeatherDisplay:10.37,2013-02-15 16:40:00,
2013-02-15 11:41:00,61.1,4.0,30.02,South,171,1.9,4.6,10,0.00,CLR,,0.00,WeatherDisplay:10.37,2013-02-15 16:41:00,
2013-02-15 11:44:00,60.8,5.9,30.02,SSE,160,0.0,2.3,11,0.00,CLR,,0.00,WeatherDisplay:10.37,2013-02-15 16:44:00,
2013-02-15 11:45:00,60.5,3.5,30.02,ESE,113,1.9,4.6,10,0.00,CLR,,0.00,WeatherDisplay:10.37,2013-02-15 16:45:00,
2013-02-15 11:46:00,61.1,4.0,30.02,ESE,113,1.2,4.6,10,0.00,CLR,,0.00,WeatherDisplay:10.37,2013-02-15 16:46:00,
2013-02-15 11:49:00,61.7,4.5,30.02,SE,130,0.6,9.6,10,0.00,CLR,,0.00,WeatherDisplay:10.37,2013-02-15 16:49:00,
2013-02-15 11:50:00,61.1,-0.8,30.02,SSE,147,1.2,10.4,8,0.00,CLR,,0.00,WeatherDisplay:10.37,2013-02-15 16:50:00,
2013-02-15 11:51:00,59.6,0.6,30.01,SSE,147,0.0,0.0,9,0.00,CLR,,0.00,WeatherDisplay:10.37,2013-02-15 16:51:00,
2013-02-15 11:54:00,60.9,3.9,30.01,SSE,147,0.0,0.0,10,0.00,CLR,,0.00,WeatherDisplay:10.37,2013-02-15 16:54:00,
2013-02-15 11:55:00,59.4,2.7,30.01,ESE,106,4.1,8.1,10,0.00,CLR,,0.00,WeatherDisplay:10.37,2013-02-15 16:55:00,
2013-02-15 11:56:00,59.5,2.8,30.01,ESE,106,0.5,6.9,10,0.00,CLR,,0.00,WeatherDisplay:10.37,2013-02-15 16:56:00,
2013-02-15 11:59:00,58.8,6.2,30.01,ESE,106,0.0,0.0,12,0.00,CLR,,0.00,WeatherDisplay:10.37,2013-02-15 16:59:00,
2013-02-15 12:00:00,59.2,4.6,30.01,ESE,106,0.0,0.0,11,0.00,CLR,,0.00,WeatherDisplay:10.37,2013-02-15 17:00:00,
2013-02-15 12:01:00,59.1,6.4,30.01,ESE,106,0.0,4.9,12,0.00,CLR,,0.00,WeatherDisplay:10.37,2013-02-15 17:01:00,
2013-02-15 12:04:00,59.7,2.9,30.01,SSW,198,1.2,5.8,10,0.00,CLR,,0.00,WeatherDisplay:10.37,2013-02-15 17:04:00,
2013-02-15 12:06:00,58.6,2.1,30.00,SSW,198,0.0,0.0,10,0.00,CLR,,0.00,WeatherDisplay:10.37,2013-02-15 17:06:00,
2013-02-15 12:10:00,60.1,3.2,30.00,SSW,198,0.0,0.0,10,0.00,CLR,,0.00,WeatherDisplay:10.37,2013-02-15 17:10:00,
2013-02-15 12:11:00,59.2,2.5,30.00,SSW,198,0.0,0.0,10,0.00,CLR,,0.00,WeatherDisplay:10.37,2013-02-15 17:11:00,
2013-02-15 12:15:00,58.1,7.4,30.00,WNW,287,1.6,8.1,13,0.00,CLR,,0.00,WeatherDisplay:10.37,2013-02-15 17:15:00,
2013-02-15 12:16:00,55.5,5.4,30.00,West,271,3.8,8.1,13,0.00,CLR,,0.00,WeatherDisplay:10.37,2013-02-15 17:16:00,
2013-02-15 12:20:00,53.3,6.7,30.00,SW,217,0.0,0.0,15,0.00,CLR,,0.00,WeatherDisplay:10.37,2013-02-15 17:20:00,
2013-02-15 12:21:00,53.2,5.1,30.00,SW,217,0.0,0.0,14,0.00,CLR,,0.00,WeatherDisplay:10.37,2013-02-15 17:21:00,
2013-02-15 12:22:00,53.6,7.0,30.00,SW,217,0.0,0.0,15,0.00,CLR,,0.00,WeatherDisplay:10.37,2013-02-15 17:22:00,
2013-02-15 12:25:00,54.2,4.3,30.00,WSW,246,2.5,5.8,13,0.00,CLR,,0.00,WeatherDisplay:10.37,2013-02-15 17:25:00,
2013-02-15 12:27:00,54.7,4.7,30.00,WSW,246,0.0,0.0,13,0.00,CLR,,0.00,WeatherDisplay:10.37,2013-02-15 17:27:00,
2013-02-15 12:30:00,52.9,1.6,30.00,WSW,239,2.1,5.8,12,0.00,CLR,,0.00,WeatherDisplay:10.37,2013-02-15 17:30:00,
2013-02-15 12:31:00,54.6,2.9,30.00,WSW,239,0.1,5.8,12,0.00,CLR,,0.00,WeatherDisplay:10.37,2013-02-15 17:31:00,
2013-02-15 12:32:00,53.4,2.0,30.00,WSW,239,0.0,0.0,12,0.00,CLR,,0.00,WeatherDisplay:10.37,2013-02-15 17:32:00,
2013-02-15 12:35:00,52.0,5.7,29.99,WSW,247,0.0,6.9,15,0.00,CLR,,0.00,WeatherDisplay:10.37,2013-02-15 17:35:00,
2013-02-15 12:36:00,52.0,5.7,29.99,SW,227,0.3,5.0,15,0.00,CLR,,0.00,WeatherDisplay:10.37,2013-02-15 17:36:00,
2013-02-15 12:37:00,51.9,5.6,29.99,West,272,3.7,4.6,15,0.00,CLR,,0.00,WeatherDisplay:10.37,2013-02-15 17:37:00,
2013-02-15 12:40:00,52.6,6.2,29.99,SSW,203,0.0,2.3,15,0.00,CLR,,0.00,WeatherDisplay:10.37,2013-02-15 17:40:00,
2013-02-15 12:41:00,52.1,5.8,29.99,SSW,203,0.0,0.0,15,0.00,CLR,,0.00,WeatherDisplay:10.37,2013-02-15 17:41:00,
2013-02-15 12:42:00,52.5,4.6,29.99,SSW,203,0.0,0.0,14,0.00,CLR,,0.00,WeatherDisplay:10.37,2013-02-15 17:42:00,
2013-02-15 12:43:00,52.2,5.9,29.99,SSW,203,0.0,0.0,15,0.00,CLR,,0.00,WeatherDisplay:10.37,2013-02-15 17:43:00,
2013-02-15 12:45:00,53.5,6.9,29.98,SSW,203,0.0,0.0,15,0.00,CLR,,0.00,WeatherDisplay:10.37,2013-02-15 17:45:00,
2013-02-15 12:46:00,53.6,5.5,29.98,SSW,203,0.0,0.0,14,0.00,CLR,,0.00,WeatherDisplay:10.37,2013-02-15 17:46:00,
2013-02-15 12:47:00,53.8,5.6,29.98,SSW,203,0.0,0.0,14,0.00,CLR,,0.00,WeatherDisplay:10.37,2013-02-15 17:47:00,
2013-02-15 12:49:00,57.4,5.1,29.98,SSW,203,0.0,0.0,12,0.00,CLR,,0.00,WeatherDisplay:10.37,2013-02-15 17:49:00,
2013-02-15 12:51:00,59.4,-2.1,29.98,SSW,203,0.0,0.0,8,0.00,CLR,,0.00,WeatherDisplay:10.37,2013-02-15 17:51:00,
2013-02-15 12:52:00,60.6,1.3,29.98,SSW,203,0.0,0.0,9,0.00,CLR,,0.00,WeatherDisplay:10.37,2013-02-15 17:52:00,
2013-02-15 12:54:00,60.7,-3.9,29.98,SSW,203,0.0,0.0,7,0.00,CLR,,0.00,WeatherDisplay:10.37,2013-02-15 17:54:00,
2013-02-15 12:56:00,61.4,-3.4,29.97,SSW,203,0.0,0.0,7,0.00,CLR,,0.00,WeatherDisplay:10.37,2013-02-15 17:56:00,
2013-02-15 12:57:00,61.0,-0.9,29.97,SSW,203,0.0,0.0,8,0.00,CLR,,0.00,WeatherDisplay:10.37,2013-02-15 17:57:00,
2013-02-15 12:59:00,60.9,-3.8,29.97,WNW,301,1.5,6.9,7,0.00,CLR,,0.00,WeatherDisplay:10.37,2013-02-15 17:59:00,
2013-02-15 13:01:00,59.9,-1.7,29.97,SW,223,4.7,6.9,8,0.00,CLR,,0.00,WeatherDisplay:10.37,2013-02-15 18:01:00,
2013-02-15 13:02:00,57.6,-0.9,29.97,WSW,248,4.5,4.5,9,0.00,CLR,,0.00,WeatherDisplay:10.37,2013-02-15 18:02:00,
2013-02-15 13:04:00,56.6,0.5,29.97,SSW,210,3.5,5.8,10,0.00,CLR,,0.00,WeatherDisplay:10.37,2013-02-15 18:04:00,
2013-02-15 13:06:00,55.5,-0.3,29.97,SW,217,1.5,5.0,10,0.00,CLR,,0.00,WeatherDisplay:10.37,2013-02-15 18:06:00,
2013-02-15 13:07:00,55.2,-0.5,29.97,SSW,192,2.0,5.8,10,0.00,CLR,,0.00,WeatherDisplay:10.37,2013-02-15 18:07:00,
2013-02-15 13:09:00,56.3,0.3,29.97,SSW,192,0.0,0.0,10,0.00,CLR,,0.00,WeatherDisplay:10.37,2013-02-15 18:09:00,
2013-02-15 13:11:00,57.3,-1.2,29.97,West,277,0.0,2.3,9,0.00,CLR,,0.00,WeatherDisplay:10.37,2013-02-15 18:11:00,
2013-02-15 13:12:00,58.2,-0.5,29.97,West,277,0.0,0.0,9,0.00,CLR,,0.00,WeatherDisplay:10.37,2013-02-15 18:12:00,
2013-02-15 13:14:00,59.4,-2.1,29.97,SW,224,1.4,6.0,8,0.00,CLR,,0.00,WeatherDisplay:10.37,2013-02-15 18:14:00,
2013-02-15 13:16:00,58.5,-2.7,29.96,WSW,257,3.0,6.6,8,0.00,CLR,,0.00,WeatherDisplay:10.37,2013-02-15 18:16:00,
2013-02-15 13:17:00,59.0,-2.4,29.97,WSW,240,4.5,8.1,8,0.00,CLR,,0.00,WeatherDisplay:10.37,2013-02-15 18:17:00,
2013-02-15 13:18:00,59.1,-2.3,29.96,WSW,251,2.2,6.9,8,0.00,CLR,,0.00,WeatherDisplay:10.37,2013-02-15 18:18:00,
2013-02-15 13:19:00,58.0,-3.1,29.96,West,267,4.5,5.8,8,0.00,CLR,,0.00,WeatherDisplay:10.37,2013-02-15 18:19:00,
2013-02-15 13:21:00,56.0,0.1,29.96,WNW,298,1.4,6.9,10,0.00,CLR,,0.00,WeatherDisplay:10.37,2013-02-15 18:21:00,
2013-02-15 13:22:00,56.5,-1.8,29.96,NW,309,3.3,8.1,9,0.00,CLR,,0.00,WeatherDisplay:10.37,2013-02-15 18:22:00,
2013-02-15 13:23:00,53.7,-1.7,29.96,NNW,333,6.8,8.1,10,0.00,CLR,,0.00,WeatherDisplay:10.37,2013-02-15 18:23:00,
2013-02-15 13:24:00,54.0,-3.7,29.96,WSW,256,4.7,9.2,9,0.00,CLR,,0.00,WeatherDisplay:10.37,2013-02-15 18:24:00,
2013-02-15 13:26:00,54.7,-0.9,29.96,South,191,0.9,4.6,10,0.00,CLR,,0.00,WeatherDisplay:10.37,2013-02-15 18:26:00,
2013-02-15 13:27:00,54.4,-3.4,29.96,South,191,0.3,3.5,9,0.00,CLR,,0.00,WeatherDisplay:10.37,2013-02-15 18:27:00,
2013-02-15 13:28:00,55.7,-2.4,29.96,South,191,0.0,0.0,9,0.00,CLR,,0.00,WeatherDisplay:10.37,2013-02-15 18:28:00,
2013-02-15 13:29:00,57.4,-1.1,29.96,South,191,0.0,0.0,9,0.00,CLR,,0.00,WeatherDisplay:10.37,2013-02-15 18:29:00,
2013-02-15 13:31:00,59.5,-4.8,29.96,NW,309,6.6,9.2,7,0.00,CLR,,0.00,WeatherDisplay:10.37,2013-02-15 18:31:00,
2013-02-15 13:32:00,58.9,-5.2,29.96,WNW,287,7.7,9.2,7,0.00,CLR,,0.00,WeatherDisplay:10.37,2013-02-15 18:32:00,
2013-02-15 13:33:00,58.2,-5.8,29.96,NNW,328,8.6,15.6,7,0.00,CLR,,0.00,WeatherDisplay:10.37,2013-02-15 18:33:00,
2013-02-15 13:34:00,56.5,-7.0,29.96,West,280,8.4,16.1,7,0.00,CLR,,0.00,WeatherDisplay:10.37,2013-02-15 18:34:00,
2013-02-15 13:37:00,55.6,-7.7,29.95,WSW,243,8.6,11.5,7,0.00,CLR,,0.00,WeatherDisplay:10.37,2013-02-15 18:37:00,
2013-02-15 13:38:00,54.3,-8.7,29.95,West,265,3.9,12.7,7,0.00,CLR,,0.00,WeatherDisplay:10.37,2013-02-15 18:38:00,
2013-02-15 13:40:00,54.5,-8.5,29.95,SSW,208,3.8,6.9,7,0.00,CLR,,0.00,WeatherDisplay:10.37,2013-02-15 18:40:00,
2013-02-15 13:42:00,53.7,-9.1,29.95,SW,222,8.3,16.1,7,0.00,CLR,,0.00,WeatherDisplay:10.37,2013-02-15 18:42:00,
2013-02-15 13:43:00,53.5,-9.3,29.95,SSE,160,6.6,13.9,7,0.00,CLR,,0.00,WeatherDisplay:10.37,2013-02-15 18:43:00,
2013-02-15 13:45:00,54.1,-11.9,29.95,West,281,8.8,15.0,6,0.00,CLR,,0.00,WeatherDisplay:10.37,2013-02-15 18:45:00,
2013-02-15 13:47:00,54.0,-8.9,29.95,WSW,244,10.1,16.1,7,0.00,CLR,,0.00,WeatherDisplay:10.37,2013-02-15 18:47:00,
2013-02-15 13:48:00,53.7,-12.2,29.95,WNW,285,9.3,17.3,6,0.00,CLR,,0.00,WeatherDisplay:10.37,2013-02-15 18:48:00,
2013-02-15 13:50:00,55.8,-10.7,29.95,WSW,250,9.8,19.6,6,0.00,CLR,,0.00,WeatherDisplay:10.37,2013-02-15 18:50:00,
2013-02-15 13:52:00,54.5,-11.6,29.95,West,275,8.1,15.0,6,0.00,CLR,,0.00,WeatherDisplay:10.37,2013-02-15 18:52:00,
2013-02-15 13:53:00,54.9,-15.0,29.95,West,268,6.7,11.5,5,0.00,CLR,,0.00,WeatherDisplay:10.37,2013-02-15 18:53:00,
2013-02-15 13:56:00,55.9,-10.6,29.95,SSE,164,5.8,9.2,6,0.00,CLR,,0.00,WeatherDisplay:10.37,2013-02-15 18:56:00,
2013-02-15 13:57:00,56.9,-9.9,29.95,WSW,248,3.6,8.3,6,0.00,CLR,,0.00,WeatherDisplay:10.37,2013-02-15 18:57:00,
2013-02-15 13:58:00,57.4,-9.5,29.95,WNW,294,6.2,9.2,6,0.00,CLR,,0.00,WeatherDisplay:10.37,2013-02-15 18:58:00,
2013-02-15 14:01:00,58.2,-12.6,29.95,WSW,239,9.2,12.3,5,0.00,CLR,,0.00,WeatherDisplay:10.37,2013-02-15 19:01:00,
2013-02-15 14:02:00,57.0,-9.8,29.94,SE,145,10.8,17.3,6,0.00,CLR,,0.00,WeatherDisplay:10.37,2013-02-15 19:02:00,
2013-02-15 14:03:00,57.8,-9.2,29.94,WSW,240,10.4,18.4,6,0.00,CLR,,0.00,WeatherDisplay:10.37,2013-02-15 19:03:00,
2013-02-15 14:06:00,57.9,-9.2,29.94,West,268,8.8,12.7,6,0.00,CLR,,0.00,WeatherDisplay:10.37,2013-02-15 19:06:00,
2013-02-15 14:07:00,57.3,-9.6,29.94,West,264,9.0,13.8,6,0.00,CLR,,0.00,WeatherDisplay:10.37,2013-02-15 19:07:00,
2013-02-15 14:08:00,58.3,-8.9,29.94,SW,216,4.7,8.2,6,0.00,CLR,,0.00,WeatherDisplay:10.37,2013-02-15 19:08:00,
2013-02-15 14:12:00,58.1,-9.0,29.94,WSW,244,6.9,11.5,6,0.00,CLR,,0.00,WeatherDisplay:10.37,2013-02-15 19:12:00,
2013-02-15 14:13:00,57.1,-9.7,29.94,West,277,6.0,11.5,6,0.00,CLR,,0.00,WeatherDisplay:10.37,2013-02-15 19:13:00,
2013-02-15 14:14:00,58.0,-9.1,29.94,West,267,7.7,10.4,6,0.00,CLR,,0.00,WeatherDisplay:10.37,2013-02-15 19:14:00,
2013-02-15 14:17:00,58.6,-8.6,29.93,SW,232,11.6,19.6,6,0.00,CLR,,0.00,WeatherDisplay:10.37,2013-02-15 19:17:00,
2013-02-15 14:18:00,57.8,-9.2,29.93,WNW,291,8.7,15.0,6,0.00,CLR,,0.00,WeatherDisplay:10.37,2013-02-15 19:18:00,
2013-02-15 14:19:00,57.8,-9.2,29.93,WSW,239,8.2,13.8,6,0.00,CLR,,0.00,WeatherDisplay:10.37,2013-02-15 19:19:00,
2013-02-15 14:22:00,58.0,-9.1,29.93,West,275,4.7,6.9,6,0.00,CLR,,0.00,WeatherDisplay:10.37,2013-02-15 19:22:00,
2013-02-15 14:23:00,58.4,-8.8,29.93,West,264,6.4,9.2,6,0.00,CLR,,0.00,WeatherDisplay:10.37,2013-02-15 19:23:00,
2013-02-15 14:24:00,57.0,-9.8,29.93,SW,233,5.2,9.2,6,0.00,CLR,,0.00,WeatherDisplay:10.37,2013-02-15 19:24:00,
2013-02-15 14:27:00,60.1,-7.5,29.93,SE,133,2.3,6.9,6,0.00,CLR,,0.00,WeatherDisplay:10.37,2013-02-15 19:27:00,
2013-02-15 14:28:00,60.0,-7.6,29.93,SSW,203,5.1,9.4,6,0.00,CLR,,0.00,WeatherDisplay:10.37,2013-02-15 19:28:00,
2013-02-15 14:29:00,59.5,-8.0,29.93,SSW,198,7.6,12.7,6,0.00,CLR,,0.00,WeatherDisplay:10.37,2013-02-15 19:29:00,
2013-02-15 14:32:00,59.2,-8.2,29.93,SSW,212,4.6,9.2,6,0.00,CLR,,0.00,WeatherDisplay:10.37,2013-02-15 19:32:00,
2013-02-15 14:33:00,59.7,-7.8,29.93,SW,215,5.3,13.1,6,0.00,CLR,,0.00,WeatherDisplay:10.37,2013-02-15 19:33:00,
2013-02-15 14:34:00,59.4,-8.1,29.93,West,274,4.7,12.7,6,0.00,CLR,,0.00,WeatherDisplay:10.37,2013-02-15 19:34:00,
2013-02-15 14:38:00,57.8,-9.2,29.93,WSW,247,10.3,15.0,6,0.00,CLR,,0.00,WeatherDisplay:10.37,2013-02-15 19:38:00,
2013-02-15 14:39:00,57.7,-9.3,29.93,West,271,9.9,15.0,6,0.00,CLR,,0.00,WeatherDisplay:10.37,2013-02-15 19:39:00,
2013-02-15 14:43:00,54.4,-11.7,29.92,WSW,246,12.2,16.1,6,0.00,CLR,,0.00,WeatherDisplay:10.37,2013-02-15 19:43:00,
2013-02-15 14:44:00,54.5,-11.6,29.93,WSW,240,12.0,16.1,6,0.00,CLR,,0.00,WeatherDisplay:10.37,2013-02-15 19:44:00,
2013-02-15 14:48:00,56.3,-10.3,29.92,WSW,256,6.6,10.4,6,0.00,CLR,,0.00,WeatherDisplay:10.37,2013-02-15 19:48:00,
2013-02-15 14:49:00,55.8,-10.7,29.92,WSW,243,6.4,10.4,6,0.00,CLR,,0.00,WeatherDisplay:10.37,2013-02-15 19:49:00,
2013-02-15 14:54:00,59.2,-8.2,29.92,WSW,257,3.3,8.1,6,0.00,CLR,,0.00,WeatherDisplay:10.37,2013-02-15 19:54:00,
2013-02-15 14:59:00,58.9,-8.4,29.92,West,265,3.7,10.4,6,0.00,CLR,,0.00,WeatherDisplay:10.37,2013-02-15 19:59:00,
2013-02-15 15:00:00,57.6,-9.4,29.92,West,265,7.8,11.5,6,0.00,CLR,,0.00,WeatherDisplay:10.37,2013-02-15 20:00:00,
2013-02-15 15:04:00,56.5,-7.0,29.91,WSW,251,5.9,12.7,7,0.00,CLR,,0.00,WeatherDisplay:10.37,2013-02-15 20:04:00,
2013-02-15 15:05:00,56.9,-6.7,29.91,SE,143,4.8,6.9,7,0.00,CLR,,0.00,WeatherDisplay:10.37,2013-02-15 20:05:00,
2013-02-15 15:09:00,56.1,-10.5,29.91,South,188,3.5,9.2,6,0.00,CLR,,0.00,WeatherDisplay:10.37,2013-02-15 20:09:00,
2013-02-15 15:10:00,57.4,-6.4,29.91,South,174,6.4,10.4,7,0.00,CLR,,0.00,WeatherDisplay:10.37,2013-02-15 20:10:00,
2013-02-15 15:14:00,58.9,-8.4,29.91,WNW,298,5.2,8.1,6,0.00,CLR,,0.00,WeatherDisplay:10.37,2013-02-15 20:14:00,
2013-02-15 15:15:00,59.5,-8.0,29.91,SW,227,5.9,8.1,6,0.00,CLR,,0.00,WeatherDisplay:10.37,2013-02-15 20:15:00,
2013-02-15 15:16:00,59.3,-8.1,29.91,SW,227,6.2,8.1,6,0.00,CLR,,0.00,WeatherDisplay:10.37,2013-02-15 20:16:00,
2013-02-15 15:19:00,58.1,-9.0,29.91,West,261,6.1,10.4,6,0.00,CLR,,0.00,WeatherDisplay:10.37,2013-02-15 20:19:00,
2013-02-15 15:20:00,58.9,-8.4,29.91,WNW,285,3.5,10.4,6,0.00,CLR,,0.00,WeatherDisplay:10.37,2013-02-15 20:20:00,
2013-02-15 15:21:00,58.5,-8.7,29.91,WSW,239,7.7,12.7,6,0.00,CLR,,0.00,WeatherDisplay:10.37,2013-02-15 20:21:00,
2013-02-15 15:24:00,58.9,-8.4,29.91,South,176,3.8,9.9,6,0.00,CLR,,0.00,WeatherDisplay:10.37,2013-02-15 20:24:00,
2013-02-15 15:25:00,59.0,-8.3,29.91,SSW,198,6.4,11.5,6,0.00,CLR,,0.00,WeatherDisplay:10.37,2013-02-15 20:25:00,
2013-02-15 15:26:00,58.9,-8.4,29.91,SSW,210,7.5,11.5,6,0.00,CLR,,0.00,WeatherDisplay:10.37,2013-02-15 20:26:00,
2013-02-15 15:29:00,58.7,-8.6,29.90,SW,223,3.8,6.2,6,0.00,CLR,,0.00,WeatherDisplay:10.37,2013-02-15 20:29:00,
2013-02-15 15:30:00,57.8,-9.2,29.90,SW,223,5.1,6.9,6,0.00,CLR,,0.00,WeatherDisplay:10.37,2013-02-15 20:30:00,
2013-02-15 15:31:00,58.1,-9.0,29.90,SW,220,2.4,6.9,6,0.00,CLR,,0.00,WeatherDisplay:10.37,2013-02-15 20:31:00,
2013-02-15 15:34:00,56.7,-6.9,29.90,SSW,192,5.4,7.3,7,0.00,CLR,,0.00,WeatherDisplay:10.37,2013-02-15 20:34:00,
2013-02-15 15:35:00,57.3,-6.4,29.90,SE,137,5.8,6.9,7,0.00,CLR,,0.00,WeatherDisplay:10.37,2013-02-15 20:35:00,
2013-02-15 15:36:00,56.0,-10.5,29.90,WSW,237,4.2,8.1,6,0.00,CLR,,0.00,WeatherDisplay:10.37,2013-02-15 20:36:00,
2013-02-15 15:40:00,57.1,-6.6,29.90,SE,127,3.1,5.8,7,0.00,CLR,,0.00,WeatherDisplay:10.37,2013-02-15 20:40:00,
2013-02-15 15:41:00,57.9,-6.0,29.90,SW,233,2.4,5.8,7,0.00,CLR,,0.00,WeatherDisplay:10.37,2013-02-15 20:41:00,
2013-02-15 15:42:00,57.1,-6.6,29.90,South,179,1.5,5.8,7,0.00,CLR,,0.00,WeatherDisplay:10.37,2013-02-15 20:42:00,
2013-02-15 15:45:00,56.8,-4.0,29.90,WNW,292,2.0,6.9,8,0.00,CLR,,0.00,WeatherDisplay:10.37,2013-02-15 20:45:00,
2013-02-15 15:46:00,57.1,-3.8,29.90,WNW,292,0.0,4.6,8,0.00,CLR,,0.00,WeatherDisplay:10.37,2013-02-15 20:46:00,
2013-02-15 15:47:00,57.1,-3.8,29.90,SSE,167,0.4,7.6,8,0.00,CLR,,0.00,WeatherDisplay:10.37,2013-02-15 20:47:00,
2013-02-15 15:50:00,55.1,-5.3,29.90,SSW,192,4.6,5.8,8,0.00,CLR,,0.00,WeatherDisplay:10.37,2013-02-15 20:50:00,
2013-02-15 15:51:00,55.4,-5.1,29.90,SE,136,1.8,10.4,8,0.00,CLR,,0.00,WeatherDisplay:10.37,2013-02-15 20:51:00,
2013-02-15 15:52:00,55.2,-2.8,29.90,SE,134,4.0,8.5,9,0.00,CLR,,0.00,WeatherDisplay:10.37,2013-02-15 20:52:00,
2013-02-15 15:55:00,55.3,-5.2,29.90,South,179,7.1,12.3,8,0.00,CLR,,0.00,WeatherDisplay:10.37,2013-02-15 20:55:00,
2013-02-15 15:56:00,53.2,-6.7,29.90,SW,224,8.8,15.0,8,0.00,CLR,,0.00,WeatherDisplay:10.37,2013-02-15 20:56:00,
2013-02-15 15:57:00,54.6,-1.0,29.90,SW,224,7.4,15.0,10,0.00,CLR,,0.00,WeatherDisplay:10.37,2013-02-15 20:57:00,
2013-02-15 16:00:00,53.3,-4.2,29.90,SW,222,5.8,10.4,9,0.00,CLR,,0.00,WeatherDisplay:10.37,2013-02-15 21:00:00,
2013-02-15 16:01:00,53.3,-2.0,29.90,SSW,210,4.4,10.4,10,0.00,CLR,,0.00,WeatherDisplay:10.37,2013-02-15 21:01:00,
2013-02-15 16:02:00,53.7,-1.7,29.91,SSW,210,5.6,10.4,10,0.00,CLR,,0.00,WeatherDisplay:10.37,2013-02-15 21:02:00,
2013-02-15 16:05:00,54.5,-1.1,29.90,SSE,154,3.9,6.9,10,0.00,CLR,,0.00,WeatherDisplay:10.37,2013-02-15 21:05:00,
2013-02-15 16:06:00,54.4,-1.2,29.91,West,260,3.6,6.9,10,0.00,CLR,,0.00,WeatherDisplay:10.37,2013-02-15 21:06:00,
2013-02-15 16:07:00,54.5,-1.1,29.90,South,174,3.8,5.8,10,0.00,CLR,,0.00,WeatherDisplay:10.37,2013-02-15 21:07:00,
2013-02-15 16:10:00,52.5,-0.6,29.91,SW,230,4.3,9.2,11,0.00,CLR,,0.00,WeatherDisplay:10.37,2013-02-15 21:10:00,
2013-02-15 16:11:00,53.2,-0.1,29.91,SW,230,1.6,9.2,11,0.00,CLR,,0.00,WeatherDisplay:10.37,2013-02-15 21:11:00,
2013-02-15 16:12:00,52.6,1.3,29.91,SW,230,0.0,2.3,12,0.00,CLR,,0.00,WeatherDisplay:10.37,2013-02-15 21:12:00,
2013-02-15 16:15:00,53.4,2.0,29.91,WNW,292,6.9,10.4,12,0.00,CLR,,0.00,WeatherDisplay:10.37,2013-02-15 21:15:00,
2013-02-15 16:16:00,53.4,2.0,29.90,WNW,292,4.1,10.4,12,0.00,CLR,,0.00,WeatherDisplay:10.37,2013-02-15 21:16:00,
2013-02-15 16:17:00,52.5,1.2,29.90,West,263,3.4,8.1,12,0.00,CLR,,0.00,WeatherDisplay:10.37,2013-02-15 21:17:00,
2013-02-15 16:18:00,51.9,0.8,29.90,West,275,4.9,8.1,12,0.00,CLR,,0.00,WeatherDisplay:10.37,2013-02-15 21:18:00,
2013-02-15 16:21:00,51.6,0.5,29.91,WSW,258,6.5,12.7,12,0.00,CLR,,0.00,WeatherDisplay:10.37,2013-02-15 21:21:00,
2013-02-15 16:22:00,51.8,0.7,29.91,SW,233,10.0,12.7,12,0.00,CLR,,0.00,WeatherDisplay:10.37,2013-02-15 21:22:00,
2013-02-15 16:23:00,52.7,3.1,29.91,WNW,282,6.4,15.0,13,0.00,CLR,,0.00,WeatherDisplay:10.37,2013-02-15 21:23:00,
2013-02-15 16:26:00,51.8,0.7,29.91,West,263,8.2,10.4,12,0.00,CLR,,0.00,WeatherDisplay:10.37,2013-02-15 21:26:00,
2013-02-15 16:27:00,52.2,1.0,29.91,West,267,5.6,11.5,12,0.00,CLR,,0.00,WeatherDisplay:10.37,2013-02-15 21:27:00,
2013-02-15 16:28:00,52.3,1.1,29.91,WSW,241,3.5,9.2,12,0.00,CLR,,0.00,WeatherDisplay:10.37,2013-02-15 21:28:00,
2013-02-15 16:31:00,52.0,0.9,29.91,West,272,1.8,3.1,12,0.00,CLR,,0.00,WeatherDisplay:10.37,2013-02-15 21:31:00,
2013-02-15 16:32:00,52.2,1.0,29.91,West,272,0.3,2.3,12,0.00,CLR,,0.00,WeatherDisplay:10.37,2013-02-15 21:32:00,
2013-02-15 16:33:00,52.7,1.4,29.91,SW,216,2.9,5.8,12,0.00,CLR,,0.00,WeatherDisplay:10.37,2013-02-15 21:33:00,
2013-02-15 16:36:00,52.4,1.2,29.91,SW,216,0.0,0.0,12,0.00,CLR,,0.00,WeatherDisplay:10.37,2013-02-15 21:36:00,
2013-02-15 16:37:00,53.7,0.3,29.91,SW,216,0.0,0.0,11,0.00,CLR,,0.00,WeatherDisplay:10.37,2013-02-15 21:37:00,
2013-02-15 16:38:00,52.2,-0.8,29.91,SW,217,0.9,8.2,11,0.00,CLR,,0.00,WeatherDisplay:10.37,2013-02-15 21:38:00,
2013-02-15 16:41:00,51.8,-1.2,29.91,SW,219,5.2,10.4,11,0.00,CLR,,0.00,WeatherDisplay:10.37,2013-02-15 21:41:00,
2013-02-15 16:42:00,52.7,-0.5,29.91,West,263,5.7,9.2,11,0.00,CLR,,0.00,WeatherDisplay:10.37,2013-02-15 21:42:00,
2013-02-15 16:44:00,52.9,-0.3,29.91,WSW,240,8.5,8.5,11,0.00,CLR,,0.00,WeatherDisplay:10.37,2013-02-15 21:44:00,
2013-02-15 16:46:00,51.6,-1.3,29.91,WNW,291,7.8,12.7,11,0.00,CLR,,0.00,WeatherDisplay:10.37,2013-02-15 21:46:00,
2013-02-15 16:48:00,52.7,-0.5,29.91,West,278,7.1,11.5,11,0.00,CLR,,0.00,WeatherDisplay:10.37,2013-02-15 21:48:00,
2013-02-15 16:49:00,52.3,-0.8,29.91,SW,229,8.5,11.5,11,0.00,CLR,,0.00,WeatherDisplay:10.37,2013-02-15 21:49:00,
2013-02-15 16:51:00,51.7,-1.2,29.91,WSW,254,5.3,9.2,11,0.00,CLR,,0.00,WeatherDisplay:10.37,2013-02-15 21:51:00,
2013-02-15 16:53:00,53.1,1.7,29.91,WSW,258,4.3,6.9,12,0.00,CLR,,0.00,WeatherDisplay:10.37,2013-02-15 21:53:00,
2013-02-15 16:54:00,52.1,-0.9,29.91,West,268,8.0,9.2,11,0.00,CLR,,0.00,WeatherDisplay:10.37,2013-02-15 21:54:00,
2013-02-15 16:56:00,52.4,-0.7,29.91,West,265,9.0,15.0,11,0.00,CLR,,0.00,WeatherDisplay:10.37,2013-02-15 21:56:00,
2013-02-15 16:58:00,52.3,-0.8,29.91,SW,236,6.3,12.7,11,0.00,CLR,,0.00,WeatherDisplay:10.37,2013-02-15 21:58:00,
2013-02-15 16:59:00,51.3,0.3,29.92,SW,219,4.1,11.7,12,0.00,CLR,,0.00,WeatherDisplay:10.37,2013-02-15 21:59:00,
2013-02-15 17:01:00,52.1,0.9,29.92,WSW,254,9.2,13.8,12,0.00,CLR,,0.00,WeatherDisplay:10.37,2013-02-15 22:01:00,
2013-02-15 17:02:00,52.1,0.9,29.92,West,278,9.8,13.8,12,0.00,CLR,,0.00,WeatherDisplay:10.37,2013-02-15 22:02:00,
2013-02-15 17:03:00,51.1,1.9,29.92,SW,227,12.6,17.3,13,0.00,CLR,,0.00,WeatherDisplay:10.37,2013-02-15 22:03:00,
2013-02-15 17:04:00,52.0,2.6,29.92,SW,227,8.8,12.7,13,0.00,CLR,,0.00,WeatherDisplay:10.37,2013-02-15 22:04:00,
2013-02-15 17:07:00,51.6,2.3,29.92,WSW,247,6.7,15.6,13,0.00,CLR,,0.00,WeatherDisplay:10.37,2013-02-15 22:07:00,
2013-02-15 17:08:00,51.2,3.5,29.92,West,277,9.1,17.3,14,0.00,CLR,,0.00,WeatherDisplay:10.37,2013-02-15 22:08:00,
2013-02-15 17:09:00,51.8,4.0,29.92,West,261,9.5,11.6,14,0.00,CLR,,0.00,WeatherDisplay:10.37,2013-02-15 22:09:00,
2013-02-15 17:12:00,51.3,5.1,29.92,WSW,257,10.1,15.4,15,0.00,CLR,,0.00,WeatherDisplay:10.37,2013-02-15 22:12:00,
2013-02-15 17:13:00,51.2,5.0,29.92,West,272,9.1,16.1,15,0.00,CLR,,0.00,WeatherDisplay:10.37,2013-02-15 22:13:00,
2013-02-15 17:14:00,50.8,4.7,29.92,WNW,296,10.7,16.1,15,0.00,CLR,,0.00,WeatherDisplay:10.37,2013-02-15 22:14:00,
2013-02-15 17:17:00,50.7,6.1,29.93,West,271,10.2,16.1,16,0.00,CLR,,0.00,WeatherDisplay:10.37,2013-02-15 22:17:00,
2013-02-15 17:18:00,50.7,6.1,29.93,West,274,11.0,18.4,16,0.00,CLR,,0.00,WeatherDisplay:10.37,2013-02-15 22:18:00,
2013-02-15 17:19:00,51.1,7.7,29.93,NW,305,7.5,12.7,17,0.00,CLR,,0.00,WeatherDisplay:10.37,2013-02-15 22:19:00,
2013-02-15 17:22:00,50.5,9.7,29.93,NW,311,10.8,17.3,19,0.00,CLR,,0.00,WeatherDisplay:10.37,2013-02-15 22:22:00,
2013-02-15 17:23:00,50.9,11.2,29.93,SW,236,5.8,16.1,20,0.00,CLR,,0.00,WeatherDisplay:10.37,2013-02-15 22:23:00,
2013-02-15 17:24:00,50.7,11.0,29.93,WNW,291,8.9,15.0,20,0.00,CLR,,0.00,WeatherDisplay:10.37,2013-02-15 22:24:00,
2013-02-15 17:27:00,50.6,12.0,29.93,West,281,8.0,13.9,21,0.00,CLR,,0.00,WeatherDisplay:10.37,2013-02-15 22:27:00,
2013-02-15 17:29:00,50.4,11.9,29.93,West,280,6.1,15.0,21,0.00,CLR,,0.00,WeatherDisplay:10.37,2013-02-15 22:29:00,
2013-02-15 17:32:00,50.1,13.7,29.93,West,267,9.8,15.5,23,0.00,CLR,,0.00,WeatherDisplay:10.37,2013-02-15 22:32:00,
2013-02-15 17:33:00,50.2,13.8,29.93,WNW,287,11.0,16.1,23,0.00,CLR,,0.00,WeatherDisplay:10.37,2013-02-15 22:33:00,
2013-02-15 17:34:00,50.2,13.8,29.93,WNW,294,7.6,12.7,23,0.00,CLR,,0.00,WeatherDisplay:10.37,2013-02-15 22:34:00,
2013-02-15 17:35:00,50.3,14.8,29.93,NW,319,6.5,12.7,24,0.00,CLR,,0.00,WeatherDisplay:10.37,2013-02-15 22:35:00,
2013-02-15 17:37:00,50.0,14.6,29.93,WNW,296,11.7,17.3,24,0.00,CLR,,0.00,WeatherDisplay:10.37,2013-02-15 22:37:00,
2013-02-15 17:38:00,50.0,14.6,29.93,NW,319,12.1,19.6,24,0.00,CLR,,0.00,WeatherDisplay:10.37,2013-02-15 22:38:00,
2013-02-15 17:39:00,50.1,15.6,29.93,WNW,291,8.1,15.0,25,0.00,CLR,,0.00,WeatherDisplay:10.37,2013-02-15 22:39:00,
2013-02-15 17:40:00,50.2,15.7,29.93,NW,304,7.8,15.0,25,0.00,CLR,,0.00,WeatherDisplay:10.37,2013-02-15 22:40:00,
2013-02-15 17:42:00,50.0,15.5,29.94,NW,308,9.8,18.4,25,0.00,CLR,,0.00,WeatherDisplay:10.37,2013-02-15 22:42:00,
2013-02-15 17:43:00,50.0,15.5,29.94,WNW,289,10.3,13.8,25,0.00,CLR,,0.00,WeatherDisplay:10.37,2013-02-15 22:43:00,
2013-02-15 17:44:00,49.8,15.3,29.94,North,349,11.2,15.0,25,0.00,CLR,,0.00,WeatherDisplay:10.37,2013-02-15 22:44:00,
2013-02-15 17:45:00,49.9,16.3,29.94,NW,316,9.6,15.0,26,0.00,CLR,,0.00,WeatherDisplay:10.37,2013-02-15 22:45:00,
2013-02-15 17:47:00,50.2,16.6,29.93,West,265,5.7,8.1,26,0.00,CLR,,0.00,WeatherDisplay:10.37,2013-02-15 22:47:00,
2013-02-15 17:48:00,50.1,16.5,29.93,West,275,5.4,9.2,26,0.00,CLR,,0.00,WeatherDisplay:10.37,2013-02-15 22:48:00,
2013-02-15 17:49:00,49.9,16.3,29.94,WSW,258,5.7,6.9,26,0.00,CLR,,0.00,WeatherDisplay:10.37,2013-02-15 22:49:00,
2013-02-15 17:50:00,50.0,16.4,29.94,West,268,6.4,6.9,26,0.00,CLR,,0.00,WeatherDisplay:10.37,2013-02-15 22:50:00,
2013-02-15 17:52:00,50.0,17.3,29.94,WSW,251,9.1,13.8,27,0.00,CLR,,0.00,WeatherDisplay:10.37,2013-02-15 22:52:00,
2013-02-15 17:53:00,49.8,17.1,29.94,West,274,6.3,10.4,27,0.00,CLR,,0.00,WeatherDisplay:10.37,2013-02-15 22:53:00,
2013-02-15 17:55:00,50.0,17.3,29.94,WNW,292,8.1,9.3,27,0.00,CLR,,0.00,WeatherDisplay:10.37,2013-02-15 22:55:00,
2013-02-15 17:58:00,49.8,18.8,29.94,West,278,7.8,10.4,29,0.00,CLR,,0.00,WeatherDisplay:10.37,2013-02-15 22:58:00,
2013-02-15 18:00:00,49.5,17.7,29.94,WSW,250,7.0,11.5,28,0.00,CLR,,0.00,WeatherDisplay:10.37,2013-02-15 23:00:00,
2013-02-15 18:03:00,49.4,18.4,29.94,NW,326,6.5,10.4,29,0.00,CLR,,0.00,WeatherDisplay:10.37,2013-02-15 23:03:00,
2013-02-15 18:04:00,49.4,18.4,29.95,NNW,336,6.3,10.4,29,0.00,CLR,,0.00,WeatherDisplay:10.37,2013-02-15 23:04:00,
2013-02-15 18:05:00,49.3,18.3,29.95,WNW,287,7.1,10.4,29,0.00,CLR,,0.00,WeatherDisplay:10.37,2013-02-15 23:05:00,
2013-02-15 18:09:00,49.1,19.7,29.95,NW,306,8.3,11.5,31,0.00,CLR,,0.00,WeatherDisplay:10.37,2013-02-15 23:09:00,
2013-02-15 18:10:00,49.0,21.1,29.95,WNW,284,9.8,13.8,33,0.00,CLR,,0.00,WeatherDisplay:10.37,2013-02-15 23:10:00,
2013-02-15 18:14:00,48.4,23.3,29.95,WNW,295,7.9,16.1,37,0.00,CLR,,0.00,WeatherDisplay:10.37,2013-02-15 23:14:00,
2013-02-15 18:15:00,48.4,23.9,29.95,NNW,342,7.9,12.7,38,0.00,CLR,,0.00,WeatherDisplay:10.37,2013-02-15 23:15:00,
2013-02-15 18:16:00,48.5,24.0,29.95,NW,316,8.0,12.7,38,0.00,CLR,,0.00,WeatherDisplay:10.37,2013-02-15 23:16:00,
2013-02-15 18:19:00,48.1,25.5,29.95,North,352,11.6,18.4,41,0.00,CLR,,0.00,WeatherDisplay:10.37,2013-02-15 23:19:00,
2013-02-15 18:20:00,48.0,25.4,29.95,WNW,291,9.5,13.8,41,0.00,CLR,,0.00,WeatherDisplay:10.37,2013-02-15 23:20:00,
2013-02-15 18:21:00,47.9,25.3,29.95,WNW,301,9.0,13.8,41,0.00,CLR,,0.00,WeatherDisplay:10.37,2013-02-15 23:21:00,
2013-02-15 18:24:00,47.7,26.8,29.96,NW,304,6.9,12.7,44,0.00,CLR,,0.00,WeatherDisplay:10.37,2013-02-15 23:24:00,
2013-02-15 18:25:00,47.6,28.3,29.96,NW,309,8.2,13.8,47,0.00,CLR,,0.00,WeatherDisplay:10.37,2013-02-15 23:25:00,
2013-02-15 18:26:00,47.3,28.6,29.96,NW,316,7.5,10.4,48,0.00,CLR,,0.00,WeatherDisplay:10.37,2013-02-15 23:26:00,
2013-02-15 18:29:00,46.6,30.4,29.96,NW,316,6.8,12.2,53,0.00,CLR,,0.00,WeatherDisplay:10.37,2013-02-15 23:29:00,
2013-02-15 18:31:00,46.6,32.2,29.96,NW,316,9.6,13.8,57,0.00,CLR,,0.00,WeatherDisplay:10.37,2013-02-15 23:31:00,
2013-02-15 18:34:00,46.1,33.0,29.96,NNW,328,8.5,10.4,60,0.01,RA,,0.01,WeatherDisplay:10.37,2013-02-15 23:34:00,
2013-02-15 18:35:00,45.8,33.5,29.96,WNW,291,9.3,10.4,62,0.01,RA,,0.01,WeatherDisplay:10.37,2013-02-15 23:35:00,
2013-02-15 18:36:00,46.1,34.6,29.97,NNW,332,6.2,10.4,64,0.01,RA,,0.01,WeatherDisplay:10.37,2013-02-15 23:36:00,
2013-02-15 18:40:00,45.9,35.2,29.97,WNW,288,8.3,13.8,66,0.01,RA,,0.01,WeatherDisplay:10.37,2013-02-15 23:40:00,
2013-02-15 18:41:00,45.8,33.9,29.96,WNW,301,10.2,17.9,63,0.01,RA,,0.01,WeatherDisplay:10.37,2013-02-15 23:41:00,
2013-02-15 18:45:00,45.3,30.5,29.97,WNW,284,10.4,17.3,56,0.01,,,0.01,WeatherDisplay:10.37,2013-02-15 23:45:00,
2013-02-15 18:46:00,45.0,30.7,29.97,WNW,289,9.8,19.6,57,0.01,CLR,,0.01,WeatherDisplay:10.37,2013-02-15 23:46:00,
2013-02-15 18:50:00,44.7,30.0,29.97,WNW,294,10.3,17.3,56,0.01,CLR,,0.01,WeatherDisplay:10.37,2013-02-15 23:50:00,
2013-02-15 18:51:00,44.6,30.3,29.97,WNW,294,9.5,16.1,57,0.01,CLR,,0.01,WeatherDisplay:10.37,2013-02-15 23:51:00,
2013-02-15 18:55:00,44.3,30.9,29.97,West,274,6.9,9.2,59,0.01,CLR,,0.01,WeatherDisplay:10.37,2013-02-15 23:55:00,
2013-02-15 18:56:00,44.4,31.0,29.98,WNW,289,7.7,11.5,59,0.01,CLR,,0.01,WeatherDisplay:10.37,2013-02-15 23:56:00,
2013-02-15 19:00:00,44.4,31.0,29.98,WNW,296,8.0,11.5,59,0.01,CLR,,0.01,WeatherDisplay:10.37,2013-02-16 00:00:00,
2013-02-15 19:01:00,44.2,31.2,29.98,WNW,295,8.9,15.0,60,0.01,CLR,,0.01,WeatherDisplay:10.37,2013-02-16 00:01:00,
2013-02-15 19:06:00,44.4,31.4,29.99,WNW,301,4.3,12.7,60,0.01,CLR,,0.01,WeatherDisplay:10.37,2013-02-16 00:06:00,
2013-02-15 19:07:00,44.2,31.6,29.99,NW,304,8.8,10.4,61,0.01,CLR,,0.01,WeatherDisplay:10.37,2013-02-16 00:07:00,
2013-02-15 19:11:00,43.9,31.3,30.00,WSW,253,7.7,16.1,61,0.01,CLR,,0.01,WeatherDisplay:10.37,2013-02-16 00:11:00,
2013-02-15 19:12:00,43.6,31.0,30.00,NW,311,6.4,16.1,61,0.01,CLR,,0.01,WeatherDisplay:10.37,2013-02-16 00:12:00,
2013-02-15 19:16:00,43.3,30.7,30.00,WNW,288,6.0,9.4,61,0.01,CLR,,0.01,WeatherDisplay:10.37,2013-02-16 00:16:00,
2013-02-15 19:17:00,43.4,31.2,30.00,West,278,9.4,13.3,62,0.01,CLR,,0.01,WeatherDisplay:10.37,2013-02-16 00:17:00,
2013-02-15 19:21:00,43.1,32.5,30.00,WNW,287,5.8,13.8,66,0.01,CLR,,0.01,WeatherDisplay:10.37,2013-02-16 00:21:00,
2013-02-15 19:22:00,43.1,32.5,30.01,NNW,329,5.4,13.8,66,0.01,CLR,,0.01,WeatherDisplay:10.37,2013-02-16 00:22:00,
2013-02-15 19:26:00,42.6,33.5,30.01,WNW,302,6.0,8.1,70,0.01,CLR,,0.01,WeatherDisplay:10.37,2013-02-16 00:26:00,
2013-02-15 19:27:00,42.5,33.8,30.01,North,353,5.9,8.1,71,0.01,CLR,,0.01,WeatherDisplay:10.37,2013-02-16 00:27:00,
2013-02-15 19:32:00,42.4,35.0,30.01,NW,320,4.4,7.1,75,0.01,CLR,,0.01,WeatherDisplay:10.37,2013-02-16 00:32:00,
2013-02-15 19:37:00,42.2,34.5,30.01,WNW,294,2.1,9.2,74,0.00,CLR,,0.01,WeatherDisplay:10.37,2013-02-16 00:37:00,
2013-02-15 19:42:00,41.9,32.5,30.01,WNW,295,9.2,10.4,69,0.00,CLR,,0.01,WeatherDisplay:10.37,2013-02-16 00:42:00,
2013-02-15 19:47:00,41.6,33.2,30.01,WNW,301,4.0,9.2,72,0.00,CLR,,0.01,WeatherDisplay:10.37,2013-02-16 00:47:00,
2013-02-15 19:48:00,41.6,33.2,30.01,WNW,301,5.5,9.2,72,0.00,CLR,,0.01,WeatherDisplay:10.37,2013-02-16 00:48:00,
2013-02-15 19:52:00,41.3,32.2,30.01,NW,323,4.8,8.1,70,0.00,CLR,,0.01,WeatherDisplay:10.37,2013-02-16 00:52:00,
2013-02-15 19:53:00,41.3,32.2,30.01,WNW,282,6.0,9.2,70,0.00,CLR,,0.01,WeatherDisplay:10.37,2013-02-16 00:53:00,
2013-02-15 19:57:00,41.4,31.6,30.01,WNW,289,6.1,9.2,68,0.00,CLR,,0.01,WeatherDisplay:10.37,2013-02-16 00:57:00,
2013-02-15 19:58:00,41.4,32.0,30.01,West,270,4.3,9.7,69,0.00,CLR,,0.01,WeatherDisplay:10.37,2013-02-16 00:58:00,
2013-02-15 20:02:00,41.0,31.2,30.01,WNW,302,6.6,6.6,68,0.00,CLR,,0.01,WeatherDisplay:10.37,2013-02-16 01:02:00,
2013-02-15 20:03:00,41.1,31.7,30.01,NW,309,6.7,10.4,69,0.00,CLR,,0.01,WeatherDisplay:10.37,2013-02-16 01:03:00,
2013-02-15 20:04:00,41.2,31.8,30.01,North,356,5.9,10.4,69,0.00,CLR,,0.01,WeatherDisplay:10.37,2013-02-16 01:04:00,
2013-02-15 20:07:00,40.7,32.0,30.01,WNW,296,6.4,10.4,71,0.00,CLR,,0.01,WeatherDisplay:10.37,2013-02-16 01:07:00,
2013-02-15 20:08:00,41.1,32.4,30.01,NW,306,6.4,10.4,71,0.00,CLR,,0.01,WeatherDisplay:10.37,2013-02-16 01:08:00,
2013-02-15 20:09:00,41.1,32.4,30.00,NW,306,5.9,10.4,71,0.00,CLR,,0.01,WeatherDisplay:10.37,2013-02-16 01:09:00,
2013-02-15 20:13:00,40.8,32.5,30.01,NW,323,8.3,11.5,72,0.00,CLR,,0.01,WeatherDisplay:10.37,2013-02-16 01:13:00,
2013-02-15 20:14:00,41.1,33.1,30.01,WNW,285,6.6,11.5,73,0.00,CLR,,0.01,WeatherDisplay:10.37,2013-02-16 01:14:00,
2013-02-15 20:15:00,40.8,33.2,30.01,WNW,299,6.6,10.4,74,0.00,CLR,,0.01,WeatherDisplay:10.37,2013-02-16 01:15:00,
2013-02-15 20:18:00,40.8,33.2,30.01,NW,309,1.5,6.9,74,0.00,CLR,,0.01,WeatherDisplay:10.37,2013-02-16 01:18:00,
2013-02-15 20:19:00,40.5,33.5,30.01,WNW,298,0.3,5.8,76,0.00,CLR,,0.01,WeatherDisplay:10.37,2013-02-16 01:19:00,
2013-02-15 20:20:00,40.5,32.9,30.01,WNW,285,2.9,7.0,74,0.00,CLR,,0.01,WeatherDisplay:10.37,2013-02-16 01:20:00,
2013-02-15 20:23:00,40.6,32.3,30.01,NNW,330,7.5,10.4,72,0.00,CLR,,0.01,WeatherDisplay:10.37,2013-02-16 01:23:00,
2013-02-15 20:24:00,40.6,32.3,30.02,NW,319,1.6,9.2,72,0.00,CLR,,0.01,WeatherDisplay:10.37,2013-02-16 01:24:00,
2013-02-15 20:25:00,40.6,31.9,30.02,NW,326,4.8,6.9,71,0.00,CLR,,0.01,WeatherDisplay:10.37,2013-02-16 01:25:00,
2013-02-15 20:28:00,40.7,31.0,30.01,NW,316,7.6,9.2,68,0.00,CLR,,0.01,WeatherDisplay:10.37,2013-02-16 01:28:00,
2013-02-15 20:29:00,40.6,31.6,30.01,NW,308,2.7,9.2,70,0.00,CLR,,0.01,WeatherDisplay:10.37,2013-02-16 01:29:00,
2013-02-15 20:30:00,40.6,31.6,30.01,NW,308,0.0,4.6,70,0.00,CLR,,0.01,WeatherDisplay:10.37,2013-02-16 01:30:00,
2013-02-15 20:33:00,40.7,32.0,30.01,West,274,2.5,9.2,71,0.00,CLR,,0.01,WeatherDisplay:10.37,2013-02-16 01:33:00,
2013-02-15 20:34:00,40.3,32.0,30.01,West,278,2.7,8.8,72,0.00,CLR,,0.01,WeatherDisplay:10.37,2013-02-16 01:34:00,
2013-02-15 20:35:00,40.3,32.0,30.01,WNW,289,2.1,9.2,72,0.00,CLR,,0.01,WeatherDisplay:10.37,2013-02-16 01:35:00,
2013-02-15 20:38:00,40.2,31.9,30.01,WNW,299,2.7,6.8,72,0.00,CLR,,0.01,WeatherDisplay:10.37,2013-02-16 01:38:00,
2013-02-15 20:39:00,40.1,31.8,30.01,WNW,284,5.7,8.1,72,0.00,CLR,,0.01,WeatherDisplay:10.37,2013-02-16 01:39:00,
2013-02-15 20:40:00,40.1,31.4,30.01,NW,313,1.0,5.8,71,0.00,CLR,,0.01,WeatherDisplay:10.37,2013-02-16 01:40:00,
2013-02-15 20:43:00,40.2,31.5,30.02,WNW,301,2.5,0.0,71,0.00,CLR,,0.01,WeatherDisplay:10.37,2013-02-16 01:43:00,
2013-02-15 20:44:00,40.2,31.5,30.02,WNW,289,3.4,8.1,71,0.00,CLR,,0.01,WeatherDisplay:10.37,2013-02-16 01:44:00,
2013-02-15 20:45:00,40.1,31.1,30.02,NW,320,5.2,9.2,70,0.00,CLR,,0.01,WeatherDisplay:10.37,2013-02-16 01:45:00,
2013-02-15 20:48:00,39.7,30.0,30.02,NW,322,4.9,8.1,68,0.00,CLR,,0.01,WeatherDisplay:10.37,2013-02-16 01:48:00,
2013-02-15 20:49:00,40.1,30.0,30.02,NW,316,6.7,6.9,67,0.00,CLR,,0.01,WeatherDisplay:10.37,2013-02-16 01:49:00,
2013-02-15 20:50:00,40.1,29.6,30.01,NW,311,6.7,10.4,66,0.00,CLR,,0.01,WeatherDisplay:10.37,2013-02-16 01:50:00,
2013-02-15 20:51:00,40.2,29.7,30.02,NW,318,4.9,10.4,66,0.00,CLR,,0.01,WeatherDisplay:10.37,2013-02-16 01:51:00,
2013-02-15 20:54:00,40.1,29.3,30.02,NNW,333,6.2,9.2,65,0.00,CLR,,0.01,WeatherDisplay:10.37,2013-02-16 01:54:00,
2013-02-15 20:55:00,40.1,29.3,30.02,NW,305,3.9,7.1,65,0.00,CLR,,0.01,WeatherDisplay:10.37,2013-02-16 01:55:00,
2013-02-15 20:56:00,40.0,28.8,30.02,NW,316,4.4,9.2,64,0.00,CLR,,0.01,WeatherDisplay:10.37,2013-02-16 01:56:00,
2013-02-15 20:59:00,39.9,28.7,30.02,NW,323,4.4,9.2,64,0.00,CLR,,0.01,WeatherDisplay:10.37,2013-02-16 01:59:00,
2013-02-15 21:00:00,40.2,27.4,30.02,NW,316,7.0,9.9,60,0.00,CLR,,0.01,WeatherDisplay:10.37,2013-02-16 02:00:00,
2013-02-15 21:01:00,39.9,27.1,30.02,NW,315,4.9,10.4,60,0.00,CLR,,0.01,WeatherDisplay:10.37,2013-02-16 02:01:00,
2013-02-15 21:04:00,40.2,27.8,30.02,WNW,299,2.1,5.8,61,0.00,CLR,,0.01,WeatherDisplay:10.37,2013-02-16 02:04:00,
2013-02-15 21:05:00,40.3,28.3,30.02,WNW,299,0.0,4.6,62,0.00,CLR,,0.01,WeatherDisplay:10.37,2013-02-16 02:05:00,
2013-02-15 21:06:00,40.4,28.4,30.02,NW,313,1.6,0.0,62,0.00,CLR,,0.01,WeatherDisplay:10.37,2013-02-16 02:06:00,
2013-02-15 21:09:00,40.2,29.0,30.02,NW,313,0.0,0.0,64,0.00,CLR,,0.01,WeatherDisplay:10.37,2013-02-16 02:09:00,
2013-02-15 21:10:00,39.9,28.3,30.02,NW,313,0.0,0.0,63,0.00,CLR,,0.01,WeatherDisplay:10.37,2013-02-16 02:10:00,
2013-02-15 21:12:00,40.1,28.1,30.02,NW,319,3.6,4.6,62,0.00,CLR,,0.01,WeatherDisplay:10.37,2013-02-16 02:12:00,
2013-02-15 21:14:00,40.1,28.5,30.02,NW,311,0.3,3.4,63,0.00,CLR,,0.01,WeatherDisplay:10.37,2013-02-16 02:14:00,
2013-02-15 21:15:00,40.2,28.2,30.02,NW,309,1.3,3.5,62,0.00,CLR,,0.01,WeatherDisplay:10.37,2013-02-16 02:15:00,
2013-02-15 21:16:00,40.2,28.2,30.02,NW,309,0.1,4.6,62,0.00,CLR,,0.01,WeatherDisplay:10.37,2013-02-16 02:16:00,
2013-02-15 21:18:00,40.2,27.0,30.02,NNW,330,0.2,4.6,59,0.00,CLR,,0.01,WeatherDisplay:10.37,2013-02-16 02:18:00,
2013-02-15 21:19:00,40.4,26.8,30.02,NW,316,4.8,6.9,58,0.00,CLR,,0.01,WeatherDisplay:10.37,2013-02-16 02:19:00,
2013-02-15 21:20:00,40.3,27.1,30.02,WNW,296,2.1,6.9,59,0.00,CLR,,0.01,WeatherDisplay:10.37,2013-02-16 02:20:00,
2013-02-15 21:21:00,40.0,27.2,30.02,NW,316,1.8,4.6,60,0.00,CLR,,0.01,WeatherDisplay:10.37,2013-02-16 02:21:00,
2013-02-15 21:23:00,40.0,27.2,30.02,NW,315,3.9,9.2,60,0.00,CLR,,0.01,WeatherDisplay:10.37,2013-02-16 02:23:00,
2013-02-15 21:24:00,40.1,27.7,30.02,NW,315,0.0,0.0,61,0.00,CLR,,0.01,WeatherDisplay:10.37,2013-02-16 02:24:00,
2013-02-15 21:25:00,40.1,27.3,30.02,NNW,328,2.5,4.7,60,0.00,CLR,,0.01,WeatherDisplay:10.37,2013-02-16 02:25:00,
2013-02-15 21:26:00,40.4,27.6,30.02,NNW,328,2.8,6.9,60,0.00,CLR,,0.01,WeatherDisplay:10.37,2013-02-16 02:26:00,
2013-02-15 21:28:00,40.2,27.4,30.02,NW,326,2.8,6.9,60,0.00,CLR,,0.01,WeatherDisplay:10.37,2013-02-16 02:28:00,
2013-02-15 21:30:00,40.2,26.6,30.02,NNW,330,6.1,9.2,58,0.00,CLR,,0.01,WeatherDisplay:10.37,2013-02-16 02:30:00,
2013-02-15 21:31:00,40.1,26.1,30.02,NW,305,5.8,8.1,57,0.00,CLR,,0.01,WeatherDisplay:10.37,2013-02-16 02:31:00,
2013-02-15 21:33:00,40.3,24.1,30.02,NW,311,4.4,8.1,52,0.00,CLR,,0.01,WeatherDisplay:10.37,2013-02-16 02:33:00,
2013-02-15 21:35:00,40.3,24.5,30.02,West,278,5.7,10.2,53,0.00,CLR,,0.01,WeatherDisplay:10.37,2013-02-16 02:35:00,
2013-02-15 21:36:00,40.1,24.3,30.02,NW,312,7.3,11.5,53,0.00,CLR,,0.01,WeatherDisplay:10.37,2013-02-16 02:36:00,
2013-02-15 21:38:00,40.3,25.0,30.02,NW,306,2.4,9.2,54,0.00,CLR,,0.01,WeatherDisplay:10.37,2013-02-16 02:38:00,
2013-02-15 21:40:00,39.8,25.4,30.02,NNW,337,1.3,5.8,56,0.00,CLR,,0.01,WeatherDisplay:10.37,2013-02-16 02:40:00,
2013-02-15 21:41:00,40.0,25.6,30.02,NNW,337,0.0,3.5,56,0.00,CLR,,0.01,WeatherDisplay:10.37,2013-02-16 02:41:00,
2013-02-15 21:43:00,40.1,26.1,30.02,NW,325,2.8,8.1,57,0.00,CLR,,0.01,WeatherDisplay:10.37,2013-02-16 02:43:00,
2013-02-15 21:45:00,40.2,26.2,30.02,NW,316,2.6,9.2,57,0.00,CLR,,0.01,WeatherDisplay:10.37,2013-02-16 02:45:00,
2013-02-15 21:46:00,39.8,26.2,30.02,NW,316,0.0,6.9,58,0.00,CLR,,0.01,WeatherDisplay:10.37,2013-02-16 02:46:00,
2013-02-15 21:48:00,39.4,26.2,30.02,NW,316,0.0,0.0,59,0.00,CLR,,0.01,WeatherDisplay:10.37,2013-02-16 02:48:00,
2013-02-15 21:50:00,40.0,27.2,30.02,NW,320,5.2,8.1,60,0.00,CLR,,0.01,WeatherDisplay:10.37,2013-02-16 02:50:00,
2013-02-15 21:51:00,39.6,27.2,30.02,NW,325,4.3,8.1,61,0.00,CLR,,0.01,WeatherDisplay:10.37,2013-02-16 02:51:00,
2013-02-15 21:54:00,39.9,27.9,30.02,NW,306,2.0,4.6,62,0.00,CLR,,0.01,WeatherDisplay:10.37,2013-02-16 02:54:00,
2013-02-15 21:56:00,39.7,26.5,30.02,NW,304,2.3,6.9,59,0.00,CLR,,0.01,WeatherDisplay:10.37,2013-02-16 02:56:00,
2013-02-15 21:57:00,39.8,26.2,30.02,NW,308,1.1,8.1,58,0.00,CLR,,0.01,WeatherDisplay:10.37,2013-02-16 02:57:00,
2013-02-15 21:59:00,40.1,25.2,30.03,WNW,288,0.8,5.8,55,0.00,CLR,,0.01,WeatherDisplay:10.37,2013-02-16 02:59:00,
2013-02-15 22:01:00,39.7,23.0,30.03,North,3,0.4,4.6,51,0.00,CLR,,0.01,WeatherDisplay:10.37,2013-02-16 03:01:00,
2013-02-15 22:02:00,40.2,24.0,30.03,North,3,0.0,3.5,52,0.00,CLR,,0.01,WeatherDisplay:10.37,2013-02-16 03:02:00,
2013-02-15 22:04:00,40.0,22.4,30.03,West,280,5.8,9.2,49,0.00,CLR,,0.01,WeatherDisplay:10.37,2013-02-16 03:04:00,
2013-02-15 22:06:00,40.1,21.5,30.03,NNW,344,3.3,5.8,47,0.00,CLR,,0.01,WeatherDisplay:10.37,2013-02-16 03:06:00,
2013-02-15 22:07:00,39.9,20.8,30.03,WNW,296,7.2,9.2,46,0.00,CLR,,0.01,WeatherDisplay:10.37,2013-02-16 03:07:00,
2013-02-15 22:09:00,40.0,20.9,30.03,NW,305,4.9,7.2,46,0.00,CLR,,0.01,WeatherDisplay:10.37,2013-02-16 03:09:00,
2013-02-15 22:11:00,40.0,20.9,30.03,NW,323,4.3,8.1,46,0.00,CLR,,0.01,WeatherDisplay:10.37,2013-02-16 03:11:00,
2013-02-15 22:12:00,39.7,20.6,30.03,NW,309,6.7,8.1,46,0.00,CLR,,0.01,WeatherDisplay:10.37,2013-02-16 03:12:00,
2013-02-15 22:15:00,39.8,20.2,30.03,NNW,329,6.9,10.3,45,0.00,CLR,,0.01,WeatherDisplay:10.37,2013-02-16 03:15:00,
2013-02-15 22:16:00,40.1,20.4,30.03,WNW,291,6.2,10.4,45,0.00,CLR,,0.01,WeatherDisplay:10.37,2013-02-16 03:16:00,
2013-02-15 22:17:00,40.0,20.3,30.03,NNW,328,5.0,10.4,45,0.00,CLR,,0.01,WeatherDisplay:10.37,2013-02-16 03:17:00,
2013-02-15 22:20:00,40.0,20.9,30.03,WNW,295,0.3,5.8,46,0.00,CLR,,0.01,WeatherDisplay:10.37,2013-02-16 03:20:00,
2013-02-15 22:21:00,39.9,20.3,30.03,WNW,299,5.4,10.4,45,0.00,CLR,,0.01,WeatherDisplay:10.37,2013-02-16 03:21:00,
2013-02-15 22:22:00,40.2,20.5,30.03,NW,316,3.6,10.4,45,0.00,CLR,,0.01,WeatherDisplay:10.37,2013-02-16 03:22:00,
2013-02-15 22:25:00,39.8,20.7,30.03,NW,311,0.0,0.0,46,0.00,CLR,,0.01,WeatherDisplay:10.37,2013-02-16 03:25:00,
2013-02-15 22:27:00,39.9,20.8,30.02,NW,304,0.5,4.6,46,0.00,CLR,,0.01,WeatherDisplay:10.37,2013-02-16 03:27:00,
2013-02-15 22:31:00,39.5,20.4,30.02,North,354,0.0,0.0,46,0.00,CLR,,0.01,WeatherDisplay:10.37,2013-02-16 03:31:00,
2013-02-15 22:32:00,39.9,21.3,30.02,North,354,0.0,0.0,47,0.00,CLR,,0.01,WeatherDisplay:10.37,2013-02-16 03:32:00,
2013-02-15 22:33:00,39.5,20.4,30.02,North,354,0.0,0.0,46,0.00,CLR,,0.01,WeatherDisplay:10.37,2013-02-16 03:33:00,
2013-02-15 22:36:00,39.3,20.2,30.02,NW,315,2.8,5.8,46,0.00,CLR,,0.01,WeatherDisplay:10.37,2013-02-16 03:36:00,
2013-02-15 22:37:00,39.7,20.6,30.02,WNW,291,1.3,4.6,46,0.00,CLR,,0.01,WeatherDisplay:10.37,2013-02-16 03:37:00,
2013-02-15 22:38:00,39.4,19.8,30.02,North,350,2.4,4.6,45,0.00,CLR,,0.01,WeatherDisplay:10.37,2013-02-16 03:38:00,
2013-02-15 22:41:00,39.4,20.3,30.02,NW,309,1.2,4.6,46,0.00,CLR,,0.01,WeatherDisplay:10.37,2013-02-16 03:41:00,
2013-02-15 22:42:00,39.4,20.3,30.02,NNW,339,0.3,2.3,46,0.00,CLR,,0.01,WeatherDisplay:10.37,2013-02-16 03:42:00,
2013-02-15 22:43:00,39.5,19.9,30.02,NNW,339,0.0,2.3,45,0.00,CLR,,0.01,WeatherDisplay:10.37,2013-02-16 03:43:00,
2013-02-15 22:47:00,39.6,20.5,30.02,WNW,294,0.0,0.0,46,0.00,CLR,,0.01,WeatherDisplay:10.37,2013-02-16 03:47:00,
2013-02-15 22:48:00,39.5,19.9,30.02,WNW,294,0.0,0.0,45,0.00,CLR,,0.01,WeatherDisplay:10.37,2013-02-16 03:48:00,
2013-02-15 22:52:00,39.6,20.5,30.02,WNW,301,0.0,0.0,46,0.00,CLR,,0.01,WeatherDisplay:10.37,2013-02-16 03:52:00,
2013-02-15 22:53:00,39.8,20.7,30.02,WNW,301,0.0,0.0,46,0.00,CLR,,0.01,WeatherDisplay:10.37,2013-02-16 03:53:00,
2013-02-15 22:57:00,39.4,21.3,30.02,WNW,301,0.0,0.0,48,0.00,CLR,,0.01,WeatherDisplay:10.37,2013-02-16 03:57:00,
2013-02-15 22:58:00,39.0,20.9,30.02,WNW,301,0.0,0.0,48,0.00,CLR,,0.01,WeatherDisplay:10.37,2013-02-16 03:58:00,
2013-02-15 23:02:00,39.3,21.7,30.02,WNW,301,0.0,0.0,49,0.00,CLR,,0.01,WeatherDisplay:10.37,2013-02-16 04:02:00,
2013-02-15 23:03:00,39.1,21.5,30.02,WNW,301,0.0,0.0,49,0.00,CLR,,0.01,WeatherDisplay:10.37,2013-02-16 04:03:00,
2013-02-15 23:07:00,39.0,20.5,30.02,NW,315,4.0,7.0,47,0.00,CLR,,0.01,WeatherDisplay:10.37,2013-02-16 04:07:00,
2013-02-15 23:08:00,39.1,20.5,30.02,NW,309,3.9,6.9,47,0.00,CLR,,0.01,WeatherDisplay:10.37,2013-02-16 04:08:00,
2013-02-15 23:09:00,39.2,20.1,30.02,WNW,299,5.1,6.9,46,0.00,CLR,,0.01,WeatherDisplay:10.37,2013-02-16 04:09:00,
2013-02-15 23:12:00,39.1,20.5,30.01,NNW,328,2.0,4.6,47,0.00,CLR,,0.01,WeatherDisplay:10.37,2013-02-16 04:12:00,
2013-02-15 23:13:00,39.0,20.5,30.01,NW,323,3.7,4.6,47,0.00,CLR,,0.01,WeatherDisplay:10.37,2013-02-16 04:13:00,
2013-02-15 23:14:00,38.9,20.4,30.01,NW,305,4.2,6.9,47,0.00,CLR,,0.01,WeatherDisplay:10.37,2013-02-16 04:14:00,
2013-02-15 23:18:00,39.2,20.1,30.01,NW,304,2.0,5.8,46,0.00,CLR,,0.01,WeatherDisplay:10.37,2013-02-16 04:18:00,
2013-02-15 23:19:00,39.0,19.4,30.01,WNW,291,5.6,6.0,45,0.00,CLR,,0.01,WeatherDisplay:10.37,2013-02-16 04:19:00,
2013-02-15 23:23:00,39.3,20.2,30.01,NW,309,4.3,9.2,46,0.00,CLR,,0.01,WeatherDisplay:10.37,2013-02-16 04:23:00,
2013-02-15 23:24:00,39.1,19.0,30.01,NNW,329,4.0,8.6,44,0.00,CLR,,0.01,WeatherDisplay:10.37,2013-02-16 04:24:00,
2013-02-15 23:28:00,39.4,19.8,30.00,NW,306,3.2,8.1,45,0.00,CLR,,0.01,WeatherDisplay:10.37,2013-02-16 04:28:00,
2013-02-15 23:29:00,39.2,19.1,30.01,NNW,342,3.6,6.9,44,0.00,CLR,,0.01,WeatherDisplay:10.37,2013-02-16 04:29:00,
2013-02-15 23:33:00,39.1,18.5,30.00,NNW,337,5.6,10.4,43,0.00,CLR,,0.01,WeatherDisplay:10.37,2013-02-16 04:33:00,
2013-02-15 23:34:00,39.5,18.8,30.00,WNW,301,4.9,10.4,43,0.00,CLR,,0.01,WeatherDisplay:10.37,2013-02-16 04:34:00,
2013-02-15 23:38:00,39.4,18.7,30.00,NW,322,6.8,9.8,43,0.00,CLR,,0.01,WeatherDisplay:10.37,2013-02-16 04:38:00,
2013-02-15 23:39:00,39.0,18.4,30.00,NNW,344,6.6,11.5,43,0.00,CLR,,0.01,WeatherDisplay:10.37,2013-02-16 04:39:00,
2013-02-15 23:40:00,39.1,17.9,30.00,WNW,299,7.1,9.1,42,0.00,CLR,,0.01,WeatherDisplay:10.37,2013-02-16 04:40:00,
2013-02-15 23:43:00,39.1,18.5,30.00,NW,308,6.8,10.4,43,0.00,CLR,,0.01,WeatherDisplay:10.37,2013-02-16 04:43:00,
2013-02-15 23:44:00,39.2,18.0,30.00,NW,309,6.5,9.2,42,0.00,CLR,,0.01,WeatherDisplay:10.37,2013-02-16 04:44:00,
2013-02-15 23:45:00,39.2,18.5,30.00,WNW,288,6.0,8.2,43,0.00,CLR,,0.01,WeatherDisplay:10.37,2013-02-16 04:45:00,
2013-02-15 23:48:00,39.1,18.5,30.00,NW,309,5.1,9.2,43,0.00,CLR,,0.01,WeatherDisplay:10.37,2013-02-16 04:48:00,
2013-02-15 23:49:00,38.9,18.3,30.00,NW,322,5.8,10.4,43,0.00,CLR,,0.01,WeatherDisplay:10.37,2013-02-16 04:49:00,
2013-02-15 23:51:00,39.1,19.5,30.00,WNW,292,3.5,5.8,45,0.00,CLR,,0.01,WeatherDisplay:10.37,2013-02-16 04:51:00,
2013-02-15 23:53:00,39.0,19.4,30.00,NW,308,5.7,8.1,45,0.00,CLR,,0.01,WeatherDisplay:10.37,2013-02-16 04:53:00,
2013-02-15 23:54:00,38.9,19.3,30.00,NW,305,4.2,9.2,45,0.00,CLR,,0.01,WeatherDisplay:10.37,2013-02-16 04:54:00,
2013-02-15 23:56:00,39.1,19.0,30.00,NW,319,7.1,10.0,44,0.00,CLR,,0.01,WeatherDisplay:10.37,2013-02-16 04:56:00,
2013-02-15 23:59:00,38.9,18.8,30.00,NW,309,5.9,8.1,44,0.00,RA,,0.00,WeatherDisplay:10.37,2013-02-16 04:59:00,